<?xml version="1.0" encoding="UTF-8" standalone="no" ?>
<gpx xmlns="http://www.topografix.com/GPX/1/1" xmlns:xsi="http://www.w3.org/2001/XMLSchema-instance" xsi:schemaLocation="http://www.topografix.com/GPX/1/1 http://www.topografix.com/GPX/1/1/gpx.xsd" version="1.1" creator="VisuGPX - https://www.visugpx.com">
  <metadata>
    <name>La TCN 12 km</name>
    <desc><![CDATA[Voici le parcours de la 12 modifié ]]></desc>
  </metadata>
  <trk>
    <name><![CDATA[2014-01-18 11:45:50]]></name>
    <trkseg>
      <trkpt lat="45.93971" lon="4.6142">
        <ele>453.31</ele>
        <time>2014-01-18T09:10:53Z</time>
      </trkpt>
      <trkpt lat="45.93975" lon="4.61444">
        <ele>454.47</ele>
        <time>2014-01-18T09:11:01Z</time>
      </trkpt>
      <trkpt lat="45.93983" lon="4.6147">
        <ele>454.74</ele>
        <time>2014-01-18T09:11:09Z</time>
      </trkpt>
      <trkpt lat="45.93985" lon="4.61498">
        <ele>454.73</ele>
        <time>2014-01-18T09:11:17Z</time>
      </trkpt>
      <trkpt lat="45.93988" lon="4.61522">
        <ele>455.01</ele>
        <time>2014-01-18T09:11:24Z</time>
      </trkpt>
      <trkpt lat="45.93989" lon="4.61546">
        <ele>454.82</ele>
        <time>2014-01-18T09:11:31Z</time>
      </trkpt>
      <trkpt lat="45.93988" lon="4.61568">
        <ele>454.78</ele>
        <time>2014-01-18T09:11:38Z</time>
      </trkpt>
      <trkpt lat="45.93986" lon="4.61585">
        <ele>455.77</ele>
        <time>2014-01-18T09:11:44Z</time>
      </trkpt>
      <trkpt lat="45.9398" lon="4.61603">
        <ele>455.89</ele>
        <time>2014-01-18T09:11:50Z</time>
      </trkpt>
      <trkpt lat="45.93973" lon="4.61615">
        <ele>456.12</ele>
        <time>2014-01-18T09:11:56Z</time>
      </trkpt>
      <trkpt lat="45.93971" lon="4.61617">
        <ele>456.1</ele>
        <time>2014-01-18T09:11:57Z</time>
      </trkpt>
      <trkpt lat="45.93972" lon="4.61627">
        <ele>456.22</ele>
        <time>2014-01-18T09:12:01Z</time>
      </trkpt>
      <trkpt lat="45.93976" lon="4.61653">
        <ele>457.96</ele>
        <time>2014-01-18T09:12:10Z</time>
      </trkpt>
      <trkpt lat="45.93986" lon="4.61664">
        <ele>460.19</ele>
        <time>2014-01-18T09:12:17Z</time>
      </trkpt>
      <trkpt lat="45.93998" lon="4.61677">
        <ele>461.13</ele>
        <time>2014-01-18T09:12:24Z</time>
      </trkpt>
      <trkpt lat="45.94003" lon="4.61694">
        <ele>462.23</ele>
        <time>2014-01-18T09:12:30Z</time>
      </trkpt>
      <trkpt lat="45.94012" lon="4.61713">
        <ele>464.28</ele>
        <time>2014-01-18T09:12:38Z</time>
      </trkpt>
      <trkpt lat="45.94024" lon="4.61732">
        <ele>464.83</ele>
        <time>2014-01-18T09:12:46Z</time>
      </trkpt>
      <trkpt lat="45.94035" lon="4.61746">
        <ele>465.5</ele>
        <time>2014-01-18T09:12:53Z</time>
      </trkpt>
      <trkpt lat="45.94043" lon="4.61763">
        <ele>466.65</ele>
        <time>2014-01-18T09:13:00Z</time>
      </trkpt>
      <trkpt lat="45.94053" lon="4.61779">
        <ele>466.65</ele>
        <time>2014-01-18T09:13:07Z</time>
      </trkpt>
      <trkpt lat="45.94065" lon="4.61792">
        <ele>464.8</ele>
        <time>2014-01-18T09:13:14Z</time>
      </trkpt>
      <trkpt lat="45.94084" lon="4.61802">
        <ele>463.38</ele>
        <time>2014-01-18T09:13:22Z</time>
      </trkpt>
      <trkpt lat="45.94097" lon="4.61814">
        <ele>462.52</ele>
        <time>2014-01-18T09:13:30Z</time>
      </trkpt>
      <trkpt lat="45.941" lon="4.61814">
        <ele>462.14</ele>
        <time>2014-01-18T09:13:31Z</time>
      </trkpt>
      <trkpt lat="45.94108" lon="4.61822">
        <ele>460.52</ele>
        <time>2014-01-18T09:13:36Z</time>
      </trkpt>
      <trkpt lat="45.94125" lon="4.61834">
        <ele>458.39</ele>
        <time>2014-01-18T09:13:43Z</time>
      </trkpt>
      <trkpt lat="45.94139" lon="4.61841">
        <ele>456.13</ele>
        <time>2014-01-18T09:13:49Z</time>
      </trkpt>
      <trkpt lat="45.94157" lon="4.61845">
        <ele>454.21</ele>
        <time>2014-01-18T09:13:56Z</time>
      </trkpt>
      <trkpt lat="45.94174" lon="4.61849">
        <ele>452.26</ele>
        <time>2014-01-18T09:14:03Z</time>
      </trkpt>
      <trkpt lat="45.94194" lon="4.61859">
        <ele>450.44</ele>
        <time>2014-01-18T09:14:12Z</time>
      </trkpt>
      <trkpt lat="45.94211" lon="4.61876">
        <ele>448.26</ele>
        <time>2014-01-18T09:14:20Z</time>
      </trkpt>
      <trkpt lat="45.94217" lon="4.619">
        <ele>445.59</ele>
        <time>2014-01-18T09:14:27Z</time>
      </trkpt>
      <trkpt lat="45.94222" lon="4.61925">
        <ele>442.51</ele>
        <time>2014-01-18T09:14:34Z</time>
      </trkpt>
      <trkpt lat="45.94222" lon="4.61929">
        <ele>442.22</ele>
        <time>2014-01-18T09:14:35Z</time>
      </trkpt>
      <trkpt lat="45.94233" lon="4.6195">
        <ele>439.84</ele>
        <time>2014-01-18T09:14:43Z</time>
      </trkpt>
      <trkpt lat="45.94251" lon="4.61969">
        <ele>437.95</ele>
        <time>2014-01-18T09:14:52Z</time>
      </trkpt>
      <trkpt lat="45.94264" lon="4.61987">
        <ele>435.48</ele>
        <time>2014-01-18T09:15:00Z</time>
      </trkpt>
      <trkpt lat="45.94278" lon="4.62001">
        <ele>432.96</ele>
        <time>2014-01-18T09:15:07Z</time>
      </trkpt>
      <trkpt lat="45.94294" lon="4.6202">
        <ele>430.33</ele>
        <time>2014-01-18T09:15:16Z</time>
      </trkpt>
      <trkpt lat="45.94308" lon="4.62032">
        <ele>428.59</ele>
        <time>2014-01-18T09:15:23Z</time>
      </trkpt>
      <trkpt lat="45.94325" lon="4.62046">
        <ele>425.4</ele>
        <time>2014-01-18T09:15:31Z</time>
      </trkpt>
      <trkpt lat="45.94342" lon="4.62064">
        <ele>422.82</ele>
        <time>2014-01-18T09:15:40Z</time>
      </trkpt>
      <trkpt lat="45.94361" lon="4.62076">
        <ele>421.6</ele>
        <time>2014-01-18T09:15:48Z</time>
      </trkpt>
      <trkpt lat="45.94378" lon="4.6208">
        <ele>420.17</ele>
        <time>2014-01-18T09:15:54Z</time>
      </trkpt>
      <trkpt lat="45.94399" lon="4.62084">
        <ele>418.48</ele>
        <time>2014-01-18T09:16:02Z</time>
      </trkpt>
      <trkpt lat="45.94417" lon="4.62088">
        <ele>417.02</ele>
        <time>2014-01-18T09:16:09Z</time>
      </trkpt>
      <trkpt lat="45.94437" lon="4.62103">
        <ele>415.35</ele>
        <time>2014-01-18T09:16:17Z</time>
      </trkpt>
      <trkpt lat="45.94447" lon="4.6212">
        <ele>412.62</ele>
        <time>2014-01-18T09:16:22Z</time>
      </trkpt>
      <trkpt lat="45.94457" lon="4.6215">
        <ele>409.9</ele>
        <time>2014-01-18T09:16:31Z</time>
      </trkpt>
      <trkpt lat="45.94459" lon="4.62153">
        <ele>409.83</ele>
        <time>2014-01-18T09:16:32Z</time>
      </trkpt>
      <trkpt lat="45.94475" lon="4.62146">
        <ele>409.11</ele>
        <time>2014-01-18T09:16:39Z</time>
      </trkpt>
      <trkpt lat="45.94493" lon="4.62126">
        <ele>408.77</ele>
        <time>2014-01-18T09:16:48Z</time>
      </trkpt>
      <trkpt lat="45.94505" lon="4.62111">
        <ele>409.02</ele>
        <time>2014-01-18T09:16:55Z</time>
      </trkpt>
      <trkpt lat="45.9452" lon="4.62097">
        <ele>409.84</ele>
        <time>2014-01-18T09:17:02Z</time>
      </trkpt>
      <trkpt lat="45.94534" lon="4.62082">
        <ele>410.37</ele>
        <time>2014-01-18T09:17:09Z</time>
      </trkpt>
      <trkpt lat="45.94537" lon="4.6208">
        <ele>410.49</ele>
        <time>2014-01-18T09:17:10Z</time>
      </trkpt>
      <trkpt lat="45.94553" lon="4.6207">
        <ele>410.64</ele>
        <time>2014-01-18T09:17:17Z</time>
      </trkpt>
      <trkpt lat="45.94571" lon="4.6206">
        <ele>410.8</ele>
        <time>2014-01-18T09:17:25Z</time>
      </trkpt>
      <trkpt lat="45.94588" lon="4.62053">
        <ele>411.34</ele>
        <time>2014-01-18T09:17:32Z</time>
      </trkpt>
      <trkpt lat="45.94606" lon="4.62044">
        <ele>411.62</ele>
        <time>2014-01-18T09:17:40Z</time>
      </trkpt>
      <trkpt lat="45.94626" lon="4.62034">
        <ele>412.64</ele>
        <time>2014-01-18T09:17:49Z</time>
      </trkpt>
      <trkpt lat="45.94645" lon="4.62023">
        <ele>412.95</ele>
        <time>2014-01-18T09:17:58Z</time>
      </trkpt>
      <trkpt lat="45.94661" lon="4.62008">
        <ele>412.73</ele>
        <time>2014-01-18T09:18:06Z</time>
      </trkpt>
      <trkpt lat="45.94674" lon="4.6199">
        <ele>413.06</ele>
        <time>2014-01-18T09:18:14Z</time>
      </trkpt>
      <trkpt lat="45.94687" lon="4.6197">
        <ele>413.2</ele>
        <time>2014-01-18T09:18:22Z</time>
      </trkpt>
      <trkpt lat="45.94698" lon="4.61957">
        <ele>413.83</ele>
        <time>2014-01-18T09:18:28Z</time>
      </trkpt>
      <trkpt lat="45.947" lon="4.61955">
        <ele>413.8</ele>
        <time>2014-01-18T09:18:29Z</time>
      </trkpt>
      <trkpt lat="45.94717" lon="4.61943">
        <ele>414.6</ele>
        <time>2014-01-18T09:18:37Z</time>
      </trkpt>
      <trkpt lat="45.94729" lon="4.61938">
        <ele>414.26</ele>
        <time>2014-01-18T09:18:43Z</time>
      </trkpt>
      <trkpt lat="45.94745" lon="4.61933">
        <ele>414.52</ele>
        <time>2014-01-18T09:18:49Z</time>
      </trkpt>
      <trkpt lat="45.94759" lon="4.6193">
        <ele>414.95</ele>
        <time>2014-01-18T09:18:55Z</time>
      </trkpt>
      <trkpt lat="45.94775" lon="4.61933">
        <ele>415.22</ele>
        <time>2014-01-18T09:19:02Z</time>
      </trkpt>
      <trkpt lat="45.9479" lon="4.61937">
        <ele>415.64</ele>
        <time>2014-01-18T09:19:09Z</time>
      </trkpt>
      <trkpt lat="45.94792" lon="4.61939">
        <ele>415.72</ele>
        <time>2014-01-18T09:19:10Z</time>
      </trkpt>
      <trkpt lat="45.948" lon="4.61949">
        <ele>415.53</ele>
        <time>2014-01-18T09:19:16Z</time>
      </trkpt>
      <trkpt lat="45.94813" lon="4.61963">
        <ele>415.78</ele>
        <time>2014-01-18T09:19:25Z</time>
      </trkpt>
      <trkpt lat="45.94814" lon="4.61965">
        <ele>415.87</ele>
        <time>2014-01-18T09:19:26Z</time>
      </trkpt>
      <trkpt lat="45.94841" lon="4.61976">
        <ele>416.64</ele>
        <time>2014-01-18T09:19:34Z</time>
      </trkpt>
      <trkpt lat="45.94861" lon="4.61984">
        <ele>417.21</ele>
        <time>2014-01-18T09:19:41Z</time>
      </trkpt>
      <trkpt lat="45.94883" lon="4.61989">
        <ele>417.51</ele>
        <time>2014-01-18T09:19:49Z</time>
      </trkpt>
      <trkpt lat="45.94901" lon="4.61989">
        <ele>417.54</ele>
        <time>2014-01-18T09:19:56Z</time>
      </trkpt>
      <trkpt lat="45.94918" lon="4.61991">
        <ele>417.85</ele>
        <time>2014-01-18T09:20:03Z</time>
      </trkpt>
      <trkpt lat="45.94936" lon="4.61991">
        <ele>418.8</ele>
        <time>2014-01-18T09:20:11Z</time>
      </trkpt>
      <trkpt lat="45.9495" lon="4.61988">
        <ele>418.95</ele>
        <time>2014-01-18T09:20:17Z</time>
      </trkpt>
      <trkpt lat="45.94968" lon="4.61981">
        <ele>419.74</ele>
        <time>2014-01-18T09:20:25Z</time>
      </trkpt>
      <trkpt lat="45.94988" lon="4.61972">
        <ele>420.68</ele>
        <time>2014-01-18T09:20:34Z</time>
      </trkpt>
      <trkpt lat="45.95004" lon="4.6196">
        <ele>421.05</ele>
        <time>2014-01-18T09:20:42Z</time>
      </trkpt>
      <trkpt lat="45.95019" lon="4.61948">
        <ele>421.5</ele>
        <time>2014-01-18T09:20:49Z</time>
      </trkpt>
      <trkpt lat="45.95033" lon="4.6194">
        <ele>422.2</ele>
        <time>2014-01-18T09:20:56Z</time>
      </trkpt>
      <trkpt lat="45.95049" lon="4.61934">
        <ele>422.31</ele>
        <time>2014-01-18T09:21:03Z</time>
      </trkpt>
      <trkpt lat="45.95064" lon="4.6193">
        <ele>423.16</ele>
        <time>2014-01-18T09:21:10Z</time>
      </trkpt>
      <trkpt lat="45.95079" lon="4.61931">
        <ele>423.44</ele>
        <time>2014-01-18T09:21:16Z</time>
      </trkpt>
      <trkpt lat="45.95095" lon="4.61926">
        <ele>423.89</ele>
        <time>2014-01-18T09:21:23Z</time>
      </trkpt>
      <trkpt lat="45.95112" lon="4.61919">
        <ele>423.97</ele>
        <time>2014-01-18T09:21:31Z</time>
      </trkpt>
      <trkpt lat="45.95125" lon="4.61911">
        <ele>424.27</ele>
        <time>2014-01-18T09:21:38Z</time>
      </trkpt>
      <trkpt lat="45.95138" lon="4.61897">
        <ele>425.23</ele>
        <time>2014-01-18T09:21:45Z</time>
      </trkpt>
      <trkpt lat="45.95145" lon="4.61876">
        <ele>426.06</ele>
        <time>2014-01-18T09:21:53Z</time>
      </trkpt>
      <trkpt lat="45.95139" lon="4.61873">
        <ele>426.64</ele>
        <time>2014-01-18T09:21:58Z</time>
      </trkpt>
      <trkpt lat="45.95137" lon="4.61874">
        <ele>426.99</ele>
        <time>2014-01-18T09:21:59Z</time>
      </trkpt>
      <trkpt lat="45.95124" lon="4.61884">
        <ele>428.64</ele>
        <time>2014-01-18T09:22:07Z</time>
      </trkpt>
      <trkpt lat="45.95109" lon="4.61892">
        <ele>430.7</ele>
        <time>2014-01-18T09:22:15Z</time>
      </trkpt>
      <trkpt lat="45.95096" lon="4.61895">
        <ele>431.32</ele>
        <time>2014-01-18T09:22:22Z</time>
      </trkpt>
      <trkpt lat="45.95082" lon="4.61896">
        <ele>432.35</ele>
        <time>2014-01-18T09:22:29Z</time>
      </trkpt>
      <trkpt lat="45.95067" lon="4.61894">
        <ele>434.35</ele>
        <time>2014-01-18T09:22:37Z</time>
      </trkpt>
      <trkpt lat="45.95056" lon="4.61892">
        <ele>435.23</ele>
        <time>2014-01-18T09:22:43Z</time>
      </trkpt>
      <trkpt lat="45.95041" lon="4.61887">
        <ele>437.34</ele>
        <time>2014-01-18T09:22:51Z</time>
      </trkpt>
      <trkpt lat="45.95031" lon="4.61884">
        <ele>438.65</ele>
        <time>2014-01-18T09:22:57Z</time>
      </trkpt>
      <trkpt lat="45.95023" lon="4.61881">
        <ele>439.44</ele>
        <time>2014-01-18T09:23:01Z</time>
      </trkpt>
      <trkpt lat="45.95015" lon="4.61878">
        <ele>440.12</ele>
        <time>2014-01-18T09:23:05Z</time>
      </trkpt>
      <trkpt lat="45.95" lon="4.61882">
        <ele>441.79</ele>
        <time>2014-01-18T09:23:13Z</time>
      </trkpt>
      <trkpt lat="45.94985" lon="4.61882">
        <ele>443</ele>
        <time>2014-01-18T09:23:20Z</time>
      </trkpt>
      <trkpt lat="45.94972" lon="4.61877">
        <ele>444.09</ele>
        <time>2014-01-18T09:23:27Z</time>
      </trkpt>
      <trkpt lat="45.94957" lon="4.61873">
        <ele>445.11</ele>
        <time>2014-01-18T09:23:36Z</time>
      </trkpt>
      <trkpt lat="45.94942" lon="4.6187">
        <ele>446.33</ele>
        <time>2014-01-18T09:23:44Z</time>
      </trkpt>
      <trkpt lat="45.94935" lon="4.61867">
        <ele>447.04</ele>
        <time>2014-01-18T09:23:48Z</time>
      </trkpt>
      <trkpt lat="45.94927" lon="4.61857">
        <ele>447.26</ele>
        <time>2014-01-18T09:23:52Z</time>
      </trkpt>
      <trkpt lat="45.9492" lon="4.61852">
        <ele>447.5</ele>
        <time>2014-01-18T09:23:55Z</time>
      </trkpt>
      <trkpt lat="45.94909" lon="4.61843">
        <ele>447.9</ele>
        <time>2014-01-18T09:24:01Z</time>
      </trkpt>
      <trkpt lat="45.94903" lon="4.61835">
        <ele>448.52</ele>
        <time>2014-01-18T09:24:05Z</time>
      </trkpt>
      <trkpt lat="45.94893" lon="4.61821">
        <ele>449.49</ele>
        <time>2014-01-18T09:24:10Z</time>
      </trkpt>
      <trkpt lat="45.94883" lon="4.61807">
        <ele>451.47</ele>
        <time>2014-01-18T09:24:18Z</time>
      </trkpt>
      <trkpt lat="45.94874" lon="4.61792">
        <ele>452.23</ele>
        <time>2014-01-18T09:24:25Z</time>
      </trkpt>
      <trkpt lat="45.94872" lon="4.61787">
        <ele>453.05</ele>
        <time>2014-01-18T09:24:28Z</time>
      </trkpt>
      <trkpt lat="45.94864" lon="4.61777">
        <ele>454.12</ele>
        <time>2014-01-18T09:24:35Z</time>
      </trkpt>
      <trkpt lat="45.94855" lon="4.61759">
        <ele>454.81</ele>
        <time>2014-01-18T09:24:41Z</time>
      </trkpt>
      <trkpt lat="45.94855" lon="4.61756">
        <ele>455.11</ele>
        <time>2014-01-18T09:24:42Z</time>
      </trkpt>
      <trkpt lat="45.94847" lon="4.61734">
        <ele>457.73</ele>
        <time>2014-01-18T09:24:50Z</time>
      </trkpt>
      <trkpt lat="45.94841" lon="4.61716">
        <ele>460.14</ele>
        <time>2014-01-18T09:24:57Z</time>
      </trkpt>
      <trkpt lat="45.94832" lon="4.61705">
        <ele>460.39</ele>
        <time>2014-01-18T09:25:03Z</time>
      </trkpt>
      <trkpt lat="45.94817" lon="4.61692">
        <ele>461.39</ele>
        <time>2014-01-18T09:25:11Z</time>
      </trkpt>
      <trkpt lat="45.94811" lon="4.61685">
        <ele>461.54</ele>
        <time>2014-01-18T09:25:15Z</time>
      </trkpt>
      <trkpt lat="45.94803" lon="4.61682">
        <ele>461.72</ele>
        <time>2014-01-18T09:25:19Z</time>
      </trkpt>
      <trkpt lat="45.9479" lon="4.61683">
        <ele>462.67</ele>
        <time>2014-01-18T09:25:25Z</time>
      </trkpt>
      <trkpt lat="45.94772" lon="4.61686">
        <ele>464.19</ele>
        <time>2014-01-18T09:25:33Z</time>
      </trkpt>
      <trkpt lat="45.94756" lon="4.61687">
        <ele>465</ele>
        <time>2014-01-18T09:25:41Z</time>
      </trkpt>
      <trkpt lat="45.94746" lon="4.61688">
        <ele>465.57</ele>
        <time>2014-01-18T09:25:47Z</time>
      </trkpt>
      <trkpt lat="45.94742" lon="4.61688">
        <ele>466.1</ele>
        <time>2014-01-18T09:25:56Z</time>
      </trkpt>
      <trkpt lat="45.94727" lon="4.61691">
        <ele>466.25</ele>
        <time>2014-01-18T09:26:04Z</time>
      </trkpt>
      <trkpt lat="45.94722" lon="4.6169">
        <ele>466.2</ele>
        <time>2014-01-18T09:26:06Z</time>
      </trkpt>
      <trkpt lat="45.94713" lon="4.61688">
        <ele>466.17</ele>
        <time>2014-01-18T09:26:10Z</time>
      </trkpt>
      <trkpt lat="45.94696" lon="4.61691">
        <ele>466.74</ele>
        <time>2014-01-18T09:26:18Z</time>
      </trkpt>
      <trkpt lat="45.9468" lon="4.61691">
        <ele>468.13</ele>
        <time>2014-01-18T09:26:25Z</time>
      </trkpt>
      <trkpt lat="45.94665" lon="4.61694">
        <ele>468.92</ele>
        <time>2014-01-18T09:26:32Z</time>
      </trkpt>
      <trkpt lat="45.9465" lon="4.61694">
        <ele>470.38</ele>
        <time>2014-01-18T09:26:39Z</time>
      </trkpt>
      <trkpt lat="45.94635" lon="4.61702">
        <ele>472.44</ele>
        <time>2014-01-18T09:26:46Z</time>
      </trkpt>
      <trkpt lat="45.94619" lon="4.6171">
        <ele>473.24</ele>
        <time>2014-01-18T09:26:53Z</time>
      </trkpt>
      <trkpt lat="45.94601" lon="4.61706">
        <ele>475.16</ele>
        <time>2014-01-18T09:27:02Z</time>
      </trkpt>
      <trkpt lat="45.94592" lon="4.617">
        <ele>475.9</ele>
        <time>2014-01-18T09:27:07Z</time>
      </trkpt>
      <trkpt lat="45.94595" lon="4.61685">
        <ele>476.44</ele>
        <time>2014-01-18T09:27:13Z</time>
      </trkpt>
      <trkpt lat="45.94605" lon="4.61675">
        <ele>476.72</ele>
        <time>2014-01-18T09:27:19Z</time>
      </trkpt>
      <trkpt lat="45.94619" lon="4.61652">
        <ele>476.75</ele>
        <time>2014-01-18T09:27:28Z</time>
      </trkpt>
      <trkpt lat="45.94634" lon="4.61635">
        <ele>478.28</ele>
        <time>2014-01-18T09:27:35Z</time>
      </trkpt>
      <trkpt lat="45.94642" lon="4.61625">
        <ele>480.07</ele>
        <time>2014-01-18T09:27:41Z</time>
      </trkpt>
      <trkpt lat="45.94653" lon="4.61621">
        <ele>481.56</ele>
        <time>2014-01-18T09:27:48Z</time>
      </trkpt>
      <trkpt lat="45.94664" lon="4.61617">
        <ele>483.05</ele>
        <time>2014-01-18T09:27:54Z</time>
      </trkpt>
      <trkpt lat="45.94675" lon="4.61609">
        <ele>484.51</ele>
        <time>2014-01-18T09:28:00Z</time>
      </trkpt>
      <trkpt lat="45.94689" lon="4.61594">
        <ele>486.6</ele>
        <time>2014-01-18T09:28:09Z</time>
      </trkpt>
      <trkpt lat="45.94698" lon="4.61581">
        <ele>487.65</ele>
        <time>2014-01-18T09:28:16Z</time>
      </trkpt>
      <trkpt lat="45.94708" lon="4.61571">
        <ele>489.11</ele>
        <time>2014-01-18T09:28:24Z</time>
      </trkpt>
      <trkpt lat="45.94718" lon="4.61558">
        <ele>490.96</ele>
        <time>2014-01-18T09:28:32Z</time>
      </trkpt>
      <trkpt lat="45.94728" lon="4.61546">
        <ele>491.94</ele>
        <time>2014-01-18T09:28:40Z</time>
      </trkpt>
      <trkpt lat="45.94738" lon="4.6153">
        <ele>494.01</ele>
        <time>2014-01-18T09:28:48Z</time>
      </trkpt>
      <trkpt lat="45.94749" lon="4.61512">
        <ele>495.95</ele>
        <time>2014-01-18T09:28:56Z</time>
      </trkpt>
      <trkpt lat="45.94762" lon="4.61496">
        <ele>497.7</ele>
        <time>2014-01-18T09:29:04Z</time>
      </trkpt>
      <trkpt lat="45.94771" lon="4.61483">
        <ele>498.89</ele>
        <time>2014-01-18T09:29:11Z</time>
      </trkpt>
      <trkpt lat="45.94784" lon="4.61476">
        <ele>500.22</ele>
        <time>2014-01-18T09:29:17Z</time>
      </trkpt>
      <trkpt lat="45.94795" lon="4.61471">
        <ele>501.48</ele>
        <time>2014-01-18T09:29:23Z</time>
      </trkpt>
      <trkpt lat="45.94809" lon="4.61467">
        <ele>503.16</ele>
        <time>2014-01-18T09:29:30Z</time>
      </trkpt>
      <trkpt lat="45.9483" lon="4.6146">
        <ele>504.63</ele>
        <time>2014-01-18T09:29:38Z</time>
      </trkpt>
      <trkpt lat="45.94841" lon="4.61447">
        <ele>505.59</ele>
        <time>2014-01-18T09:29:45Z</time>
      </trkpt>
      <trkpt lat="45.94842" lon="4.61445">
        <ele>505.78</ele>
        <time>2014-01-18T09:29:46Z</time>
      </trkpt>
      <trkpt lat="45.94842" lon="4.61437">
        <ele>508.21</ele>
        <time>2014-01-18T09:29:51Z</time>
      </trkpt>
      <trkpt lat="45.94842" lon="4.61436">
        <ele>508.37</ele>
        <time>2014-01-18T09:29:52Z</time>
      </trkpt>
      <trkpt lat="45.94842" lon="4.61433">
        <ele>509.19</ele>
        <time>2014-01-18T09:29:55Z</time>
      </trkpt>
      <trkpt lat="45.94838" lon="4.61416">
        <ele>511.56</ele>
        <time>2014-01-18T09:30:03Z</time>
      </trkpt>
      <trkpt lat="45.94837" lon="4.6141">
        <ele>512.8</ele>
        <time>2014-01-18T09:30:06Z</time>
      </trkpt>
      <trkpt lat="45.94837" lon="4.61405">
        <ele>513.47</ele>
        <time>2014-01-18T09:30:08Z</time>
      </trkpt>
      <trkpt lat="45.94834" lon="4.61382">
        <ele>516.51</ele>
        <time>2014-01-18T09:30:16Z</time>
      </trkpt>
      <trkpt lat="45.94829" lon="4.61368">
        <ele>517.97</ele>
        <time>2014-01-18T09:30:22Z</time>
      </trkpt>
      <trkpt lat="45.94825" lon="4.6136">
        <ele>519.73</ele>
        <time>2014-01-18T09:30:29Z</time>
      </trkpt>
      <trkpt lat="45.94824" lon="4.6135">
        <ele>521.49</ele>
        <time>2014-01-18T09:30:37Z</time>
      </trkpt>
      <trkpt lat="45.94822" lon="4.61345">
        <ele>522.29</ele>
        <time>2014-01-18T09:30:40Z</time>
      </trkpt>
      <trkpt lat="45.9482" lon="4.61341">
        <ele>523</ele>
        <time>2014-01-18T09:30:43Z</time>
      </trkpt>
      <trkpt lat="45.94817" lon="4.61329">
        <ele>524.65</ele>
        <time>2014-01-18T09:30:50Z</time>
      </trkpt>
      <trkpt lat="45.94816" lon="4.61329">
        <ele>524.82</ele>
        <time>2014-01-18T09:30:51Z</time>
      </trkpt>
      <trkpt lat="45.94809" lon="4.61321">
        <ele>526.45</ele>
        <time>2014-01-18T09:30:57Z</time>
      </trkpt>
      <trkpt lat="45.94803" lon="4.6132">
        <ele>528.07</ele>
        <time>2014-01-18T09:31:02Z</time>
      </trkpt>
      <trkpt lat="45.94791" lon="4.61319">
        <ele>529.51</ele>
        <time>2014-01-18T09:31:09Z</time>
      </trkpt>
      <trkpt lat="45.94779" lon="4.61317">
        <ele>531.06</ele>
        <time>2014-01-18T09:31:16Z</time>
      </trkpt>
      <trkpt lat="45.94771" lon="4.61315">
        <ele>531.73</ele>
        <time>2014-01-18T09:31:19Z</time>
      </trkpt>
      <trkpt lat="45.94757" lon="4.61313">
        <ele>534.32</ele>
        <time>2014-01-18T09:31:28Z</time>
      </trkpt>
      <trkpt lat="45.94745" lon="4.61304">
        <ele>536.3</ele>
        <time>2014-01-18T09:31:35Z</time>
      </trkpt>
      <trkpt lat="45.94744" lon="4.61301">
        <ele>536.52</ele>
        <time>2014-01-18T09:31:36Z</time>
      </trkpt>
      <trkpt lat="45.94743" lon="4.61277">
        <ele>539.92</ele>
        <time>2014-01-18T09:31:46Z</time>
      </trkpt>
      <trkpt lat="45.94743" lon="4.6127">
        <ele>540.14</ele>
        <time>2014-01-18T09:31:47Z</time>
      </trkpt>
      <trkpt lat="45.94742" lon="4.61259">
        <ele>541.97</ele>
        <time>2014-01-18T09:31:53Z</time>
      </trkpt>
      <trkpt lat="45.94744" lon="4.61255">
        <ele>542.32</ele>
        <time>2014-01-18T09:31:55Z</time>
      </trkpt>
      <trkpt lat="45.94748" lon="4.61246">
        <ele>543.17</ele>
        <time>2014-01-18T09:32:02Z</time>
      </trkpt>
      <trkpt lat="45.9475" lon="4.61242">
        <ele>543.22</ele>
        <time>2014-01-18T09:32:05Z</time>
      </trkpt>
      <trkpt lat="45.94754" lon="4.6123">
        <ele>544.01</ele>
        <time>2014-01-18T09:32:12Z</time>
      </trkpt>
      <trkpt lat="45.94754" lon="4.61228">
        <ele>544.29</ele>
        <time>2014-01-18T09:32:13Z</time>
      </trkpt>
      <trkpt lat="45.94758" lon="4.61216">
        <ele>545.79</ele>
        <time>2014-01-18T09:32:18Z</time>
      </trkpt>
      <trkpt lat="45.9477" lon="4.61194">
        <ele>548.71</ele>
        <time>2014-01-18T09:32:27Z</time>
      </trkpt>
      <trkpt lat="45.94775" lon="4.61186">
        <ele>550.68</ele>
        <time>2014-01-18T09:32:34Z</time>
      </trkpt>
      <trkpt lat="45.94781" lon="4.61168">
        <ele>552.15</ele>
        <time>2014-01-18T09:32:42Z</time>
      </trkpt>
      <trkpt lat="45.94791" lon="4.6115">
        <ele>554.79</ele>
        <time>2014-01-18T09:32:49Z</time>
      </trkpt>
      <trkpt lat="45.94802" lon="4.61134">
        <ele>556.46</ele>
        <time>2014-01-18T09:32:55Z</time>
      </trkpt>
      <trkpt lat="45.94804" lon="4.61131">
        <ele>557.19</ele>
        <time>2014-01-18T09:32:57Z</time>
      </trkpt>
      <trkpt lat="45.94805" lon="4.61127">
        <ele>558.03</ele>
        <time>2014-01-18T09:32:59Z</time>
      </trkpt>
      <trkpt lat="45.94809" lon="4.61107">
        <ele>560.25</ele>
        <time>2014-01-18T09:33:07Z</time>
      </trkpt>
      <trkpt lat="45.94811" lon="4.61093">
        <ele>560.89</ele>
        <time>2014-01-18T09:33:12Z</time>
      </trkpt>
      <trkpt lat="45.94814" lon="4.61085">
        <ele>561.36</ele>
        <time>2014-01-18T09:33:15Z</time>
      </trkpt>
      <trkpt lat="45.94823" lon="4.61064">
        <ele>564.73</ele>
        <time>2014-01-18T09:33:24Z</time>
      </trkpt>
      <trkpt lat="45.94829" lon="4.61043">
        <ele>567.44</ele>
        <time>2014-01-18T09:33:33Z</time>
      </trkpt>
      <trkpt lat="45.94833" lon="4.61031">
        <ele>569.04</ele>
        <time>2014-01-18T09:33:39Z</time>
      </trkpt>
      <trkpt lat="45.94838" lon="4.61023">
        <ele>570.41</ele>
        <time>2014-01-18T09:33:46Z</time>
      </trkpt>
      <trkpt lat="45.94841" lon="4.6101">
        <ele>570.89</ele>
        <time>2014-01-18T09:33:54Z</time>
      </trkpt>
      <trkpt lat="45.94844" lon="4.61007">
        <ele>572.56</ele>
        <time>2014-01-18T09:34:02Z</time>
      </trkpt>
      <trkpt lat="45.94846" lon="4.61">
        <ele>572.18</ele>
        <time>2014-01-18T09:34:15Z</time>
      </trkpt>
      <trkpt lat="45.94856" lon="4.60982">
        <ele>573.93</ele>
        <time>2014-01-18T09:34:28Z</time>
      </trkpt>
      <trkpt lat="45.94863" lon="4.60956">
        <ele>576.97</ele>
        <time>2014-01-18T09:34:39Z</time>
      </trkpt>
      <trkpt lat="45.94868" lon="4.60939">
        <ele>578.53</ele>
        <time>2014-01-18T09:34:47Z</time>
      </trkpt>
      <trkpt lat="45.94871" lon="4.60929">
        <ele>579.83</ele>
        <time>2014-01-18T09:34:51Z</time>
      </trkpt>
      <trkpt lat="45.94871" lon="4.60917">
        <ele>580.97</ele>
        <time>2014-01-18T09:34:55Z</time>
      </trkpt>
      <trkpt lat="45.9487" lon="4.60889">
        <ele>583.43</ele>
        <time>2014-01-18T09:35:05Z</time>
      </trkpt>
      <trkpt lat="45.94867" lon="4.60874">
        <ele>583.77</ele>
        <time>2014-01-18T09:35:10Z</time>
      </trkpt>
      <trkpt lat="45.94864" lon="4.60851">
        <ele>584.14</ele>
        <time>2014-01-18T09:35:18Z</time>
      </trkpt>
      <trkpt lat="45.94858" lon="4.60834">
        <ele>583.84</ele>
        <time>2014-01-18T09:35:24Z</time>
      </trkpt>
      <trkpt lat="45.94854" lon="4.60811">
        <ele>583.62</ele>
        <time>2014-01-18T09:35:31Z</time>
      </trkpt>
      <trkpt lat="45.9485" lon="4.60795">
        <ele>584.29</ele>
        <time>2014-01-18T09:35:36Z</time>
      </trkpt>
      <trkpt lat="45.94846" lon="4.60783">
        <ele>585.01</ele>
        <time>2014-01-18T09:35:40Z</time>
      </trkpt>
      <trkpt lat="45.94838" lon="4.60758">
        <ele>585.71</ele>
        <time>2014-01-18T09:35:48Z</time>
      </trkpt>
      <trkpt lat="45.94831" lon="4.60737">
        <ele>586.08</ele>
        <time>2014-01-18T09:35:54Z</time>
      </trkpt>
      <trkpt lat="45.94821" lon="4.60711">
        <ele>585.53</ele>
        <time>2014-01-18T09:36:01Z</time>
      </trkpt>
      <trkpt lat="45.94818" lon="4.60684">
        <ele>585.44</ele>
        <time>2014-01-18T09:36:08Z</time>
      </trkpt>
      <trkpt lat="45.9481" lon="4.60656">
        <ele>584.81</ele>
        <time>2014-01-18T09:36:16Z</time>
      </trkpt>
      <trkpt lat="45.94808" lon="4.60625">
        <ele>584.33</ele>
        <time>2014-01-18T09:36:24Z</time>
      </trkpt>
      <trkpt lat="45.9481" lon="4.60601">
        <ele>586.72</ele>
        <time>2014-01-18T09:36:32Z</time>
      </trkpt>
      <trkpt lat="45.94817" lon="4.60578">
        <ele>587.83</ele>
        <time>2014-01-18T09:36:39Z</time>
      </trkpt>
      <trkpt lat="45.94824" lon="4.60557">
        <ele>587.55</ele>
        <time>2014-01-18T09:36:46Z</time>
      </trkpt>
      <trkpt lat="45.94835" lon="4.60537">
        <ele>585.58</ele>
        <time>2014-01-18T09:36:53Z</time>
      </trkpt>
      <trkpt lat="45.94846" lon="4.60518">
        <ele>584.19</ele>
        <time>2014-01-18T09:37:00Z</time>
      </trkpt>
      <trkpt lat="45.9486" lon="4.605">
        <ele>583.95</ele>
        <time>2014-01-18T09:37:07Z</time>
      </trkpt>
      <trkpt lat="45.94875" lon="4.60481">
        <ele>583.66</ele>
        <time>2014-01-18T09:37:15Z</time>
      </trkpt>
      <trkpt lat="45.94894" lon="4.60453">
        <ele>583.11</ele>
        <time>2014-01-18T09:37:26Z</time>
      </trkpt>
      <trkpt lat="45.94904" lon="4.60434">
        <ele>582.38</ele>
        <time>2014-01-18T09:37:33Z</time>
      </trkpt>
      <trkpt lat="45.94917" lon="4.60416">
        <ele>581.32</ele>
        <time>2014-01-18T09:37:40Z</time>
      </trkpt>
      <trkpt lat="45.9493" lon="4.60399">
        <ele>581.39</ele>
        <time>2014-01-18T09:37:47Z</time>
      </trkpt>
      <trkpt lat="45.94942" lon="4.60381">
        <ele>581.77</ele>
        <time>2014-01-18T09:37:54Z</time>
      </trkpt>
      <trkpt lat="45.9496" lon="4.60356">
        <ele>580.7</ele>
        <time>2014-01-18T09:38:04Z</time>
      </trkpt>
      <trkpt lat="45.94975" lon="4.60333">
        <ele>579.87</ele>
        <time>2014-01-18T09:38:13Z</time>
      </trkpt>
      <trkpt lat="45.94989" lon="4.60312">
        <ele>578.76</ele>
        <time>2014-01-18T09:38:21Z</time>
      </trkpt>
      <trkpt lat="45.95004" lon="4.60291">
        <ele>578.45</ele>
        <time>2014-01-18T09:38:29Z</time>
      </trkpt>
      <trkpt lat="45.95021" lon="4.60275">
        <ele>575.99</ele>
        <time>2014-01-18T09:38:37Z</time>
      </trkpt>
      <trkpt lat="45.95027" lon="4.60273">
        <ele>577.74</ele>
        <time>2014-01-18T09:38:41Z</time>
      </trkpt>
      <trkpt lat="45.95033" lon="4.60271">
        <ele>577.41</ele>
        <time>2014-01-18T09:38:49Z</time>
      </trkpt>
      <trkpt lat="45.95036" lon="4.60268">
        <ele>577.29</ele>
        <time>2014-01-18T09:39:01Z</time>
      </trkpt>
      <trkpt lat="45.95034" lon="4.60266">
        <ele>578.41</ele>
        <time>2014-01-18T09:39:11Z</time>
      </trkpt>
      <trkpt lat="45.95033" lon="4.60265">
        <ele>578.27</ele>
        <time>2014-01-18T09:39:24Z</time>
      </trkpt>
      <trkpt lat="45.95033" lon="4.60266">
        <ele>578.32</ele>
        <time>2014-01-18T09:39:36Z</time>
      </trkpt>
      <trkpt lat="45.95035" lon="4.6027">
        <ele>577.95</ele>
        <time>2014-01-18T09:39:43Z</time>
      </trkpt>
      <trkpt lat="45.95039" lon="4.60276">
        <ele>577.17</ele>
        <time>2014-01-18T09:39:51Z</time>
      </trkpt>
      <trkpt lat="45.95044" lon="4.60285">
        <ele>576.18</ele>
        <time>2014-01-18T09:39:55Z</time>
      </trkpt>
      <trkpt lat="45.95049" lon="4.60299">
        <ele>575.34</ele>
        <time>2014-01-18T09:39:59Z</time>
      </trkpt>
      <trkpt lat="45.95051" lon="4.60306">
        <ele>574.52</ele>
        <time>2014-01-18T09:40:01Z</time>
      </trkpt>
      <trkpt lat="45.95063" lon="4.6033">
        <ele>572.22</ele>
        <time>2014-01-18T09:40:08Z</time>
      </trkpt>
      <trkpt lat="45.95073" lon="4.6035">
        <ele>569.61</ele>
        <time>2014-01-18T09:40:14Z</time>
      </trkpt>
      <trkpt lat="45.95085" lon="4.60368">
        <ele>566.51</ele>
        <time>2014-01-18T09:40:20Z</time>
      </trkpt>
      <trkpt lat="45.95084" lon="4.60388">
        <ele>563.42</ele>
        <time>2014-01-18T09:40:25Z</time>
      </trkpt>
      <trkpt lat="45.95084" lon="4.60412">
        <ele>560.92</ele>
        <time>2014-01-18T09:40:31Z</time>
      </trkpt>
      <trkpt lat="45.95086" lon="4.60429">
        <ele>557.59</ele>
        <time>2014-01-18T09:40:35Z</time>
      </trkpt>
      <trkpt lat="45.95087" lon="4.60448">
        <ele>554.29</ele>
        <time>2014-01-18T09:40:39Z</time>
      </trkpt>
      <trkpt lat="45.95088" lon="4.60479">
        <ele>550.35</ele>
        <time>2014-01-18T09:40:46Z</time>
      </trkpt>
      <trkpt lat="45.95083" lon="4.60498">
        <ele>547.31</ele>
        <time>2014-01-18T09:40:51Z</time>
      </trkpt>
      <trkpt lat="45.95073" lon="4.60519">
        <ele>545.41</ele>
        <time>2014-01-18T09:40:58Z</time>
      </trkpt>
      <trkpt lat="45.95058" lon="4.60541">
        <ele>542.28</ele>
        <time>2014-01-18T09:41:05Z</time>
      </trkpt>
      <trkpt lat="45.95047" lon="4.60555">
        <ele>539.72</ele>
        <time>2014-01-18T09:41:10Z</time>
      </trkpt>
      <trkpt lat="45.95036" lon="4.60571">
        <ele>536.17</ele>
        <time>2014-01-18T09:41:15Z</time>
      </trkpt>
      <trkpt lat="45.9503" lon="4.6059">
        <ele>532.93</ele>
        <time>2014-01-18T09:41:20Z</time>
      </trkpt>
      <trkpt lat="45.95035" lon="4.60607">
        <ele>529.61</ele>
        <time>2014-01-18T09:41:24Z</time>
      </trkpt>
      <trkpt lat="45.95042" lon="4.60621">
        <ele>526.15</ele>
        <time>2014-01-18T09:41:28Z</time>
      </trkpt>
      <trkpt lat="45.95047" lon="4.60631">
        <ele>524.14</ele>
        <time>2014-01-18T09:41:31Z</time>
      </trkpt>
      <trkpt lat="45.95061" lon="4.60649">
        <ele>520.88</ele>
        <time>2014-01-18T09:41:37Z</time>
      </trkpt>
      <trkpt lat="45.95073" lon="4.60666">
        <ele>517.65</ele>
        <time>2014-01-18T09:41:43Z</time>
      </trkpt>
      <trkpt lat="45.95087" lon="4.60679">
        <ele>514.9</ele>
        <time>2014-01-18T09:41:49Z</time>
      </trkpt>
      <trkpt lat="45.95105" lon="4.60688">
        <ele>512.26</ele>
        <time>2014-01-18T09:41:55Z</time>
      </trkpt>
      <trkpt lat="45.9512" lon="4.60696">
        <ele>509.19</ele>
        <time>2014-01-18T09:42:01Z</time>
      </trkpt>
      <trkpt lat="45.95134" lon="4.60705">
        <ele>506.68</ele>
        <time>2014-01-18T09:42:06Z</time>
      </trkpt>
      <trkpt lat="45.95152" lon="4.60712">
        <ele>503.37</ele>
        <time>2014-01-18T09:42:12Z</time>
      </trkpt>
      <trkpt lat="45.95158" lon="4.60715">
        <ele>502.71</ele>
        <time>2014-01-18T09:42:14Z</time>
      </trkpt>
      <trkpt lat="45.95173" lon="4.60721">
        <ele>500.44</ele>
        <time>2014-01-18T09:42:19Z</time>
      </trkpt>
      <trkpt lat="45.95187" lon="4.60729">
        <ele>497.41</ele>
        <time>2014-01-18T09:42:25Z</time>
      </trkpt>
      <trkpt lat="45.95196" lon="4.60732">
        <ele>496.19</ele>
        <time>2014-01-18T09:42:28Z</time>
      </trkpt>
      <trkpt lat="45.95209" lon="4.60735">
        <ele>494.41</ele>
        <time>2014-01-18T09:42:32Z</time>
      </trkpt>
      <trkpt lat="45.95228" lon="4.60739">
        <ele>490.96</ele>
        <time>2014-01-18T09:42:38Z</time>
      </trkpt>
      <trkpt lat="45.95249" lon="4.60743">
        <ele>487.3</ele>
        <time>2014-01-18T09:42:45Z</time>
      </trkpt>
      <trkpt lat="45.95267" lon="4.60741">
        <ele>483.95</ele>
        <time>2014-01-18T09:42:51Z</time>
      </trkpt>
      <trkpt lat="45.95283" lon="4.60743">
        <ele>481.13</ele>
        <time>2014-01-18T09:42:57Z</time>
      </trkpt>
      <trkpt lat="45.95301" lon="4.60745">
        <ele>477.63</ele>
        <time>2014-01-18T09:43:03Z</time>
      </trkpt>
      <trkpt lat="45.9532" lon="4.6075">
        <ele>474.62</ele>
        <time>2014-01-18T09:43:09Z</time>
      </trkpt>
      <trkpt lat="45.95337" lon="4.60756">
        <ele>471.2</ele>
        <time>2014-01-18T09:43:15Z</time>
      </trkpt>
      <trkpt lat="45.95349" lon="4.6076">
        <ele>468.75</ele>
        <time>2014-01-18T09:43:20Z</time>
      </trkpt>
      <trkpt lat="45.95362" lon="4.60756">
        <ele>465.61</ele>
        <time>2014-01-18T09:43:25Z</time>
      </trkpt>
      <trkpt lat="45.95365" lon="4.60754">
        <ele>465.33</ele>
        <time>2014-01-18T09:43:26Z</time>
      </trkpt>
      <trkpt lat="45.95372" lon="4.60748">
        <ele>463.55</ele>
        <time>2014-01-18T09:43:29Z</time>
      </trkpt>
      <trkpt lat="45.95386" lon="4.60736">
        <ele>460.29</ele>
        <time>2014-01-18T09:43:35Z</time>
      </trkpt>
      <trkpt lat="45.95404" lon="4.6072">
        <ele>456.99</ele>
        <time>2014-01-18T09:43:43Z</time>
      </trkpt>
      <trkpt lat="45.95416" lon="4.60712">
        <ele>455.62</ele>
        <time>2014-01-18T09:43:48Z</time>
      </trkpt>
      <trkpt lat="45.95429" lon="4.60707">
        <ele>454.53</ele>
        <time>2014-01-18T09:43:53Z</time>
      </trkpt>
      <trkpt lat="45.95432" lon="4.60707">
        <ele>454.21</ele>
        <time>2014-01-18T09:43:58Z</time>
      </trkpt>
      <trkpt lat="45.95433" lon="4.60707">
        <ele>454.12</ele>
        <time>2014-01-18T09:44:02Z</time>
      </trkpt>
      <trkpt lat="45.95447" lon="4.60704">
        <ele>452.3</ele>
        <time>2014-01-18T09:44:09Z</time>
      </trkpt>
      <trkpt lat="45.95456" lon="4.60702">
        <ele>451.51</ele>
        <time>2014-01-18T09:44:14Z</time>
      </trkpt>
      <trkpt lat="45.95478" lon="4.60703">
        <ele>450.85</ele>
        <time>2014-01-18T09:44:21Z</time>
      </trkpt>
      <trkpt lat="45.95501" lon="4.60699">
        <ele>449.56</ele>
        <time>2014-01-18T09:44:29Z</time>
      </trkpt>
      <trkpt lat="45.95526" lon="4.60701">
        <ele>447.92</ele>
        <time>2014-01-18T09:44:38Z</time>
      </trkpt>
      <trkpt lat="45.95549" lon="4.60709">
        <ele>445.84</ele>
        <time>2014-01-18T09:44:46Z</time>
      </trkpt>
      <trkpt lat="45.95572" lon="4.60723">
        <ele>444.4</ele>
        <time>2014-01-18T09:44:54Z</time>
      </trkpt>
      <trkpt lat="45.95595" lon="4.60733">
        <ele>443.2</ele>
        <time>2014-01-18T09:45:03Z</time>
      </trkpt>
      <trkpt lat="45.95615" lon="4.60741">
        <ele>441.09</ele>
        <time>2014-01-18T09:45:11Z</time>
      </trkpt>
      <trkpt lat="45.95627" lon="4.60747">
        <ele>439.6</ele>
        <time>2014-01-18T09:45:16Z</time>
      </trkpt>
      <trkpt lat="45.95637" lon="4.60753">
        <ele>438.22</ele>
        <time>2014-01-18T09:45:20Z</time>
      </trkpt>
      <trkpt lat="45.95645" lon="4.60758">
        <ele>436.84</ele>
        <time>2014-01-18T09:45:24Z</time>
      </trkpt>
      <trkpt lat="45.95663" lon="4.60768">
        <ele>435.02</ele>
        <time>2014-01-18T09:45:32Z</time>
      </trkpt>
      <trkpt lat="45.95665" lon="4.6077">
        <ele>434.6</ele>
        <time>2014-01-18T09:45:38Z</time>
      </trkpt>
      <trkpt lat="45.95678" lon="4.60773">
        <ele>434.59</ele>
        <time>2014-01-18T09:45:44Z</time>
      </trkpt>
      <trkpt lat="45.95701" lon="4.60774">
        <ele>433.6</ele>
        <time>2014-01-18T09:45:52Z</time>
      </trkpt>
      <trkpt lat="45.95721" lon="4.60777">
        <ele>433.46</ele>
        <time>2014-01-18T09:45:59Z</time>
      </trkpt>
      <trkpt lat="45.95737" lon="4.60779">
        <ele>433.89</ele>
        <time>2014-01-18T09:46:05Z</time>
      </trkpt>
      <trkpt lat="45.95758" lon="4.60781">
        <ele>434.53</ele>
        <time>2014-01-18T09:46:13Z</time>
      </trkpt>
      <trkpt lat="45.95778" lon="4.60784">
        <ele>434.48</ele>
        <time>2014-01-18T09:46:21Z</time>
      </trkpt>
      <trkpt lat="45.95796" lon="4.60786">
        <ele>434.85</ele>
        <time>2014-01-18T09:46:29Z</time>
      </trkpt>
      <trkpt lat="45.95814" lon="4.60789">
        <ele>435.34</ele>
        <time>2014-01-18T09:46:36Z</time>
      </trkpt>
      <trkpt lat="45.95834" lon="4.60795">
        <ele>435.48</ele>
        <time>2014-01-18T09:46:44Z</time>
      </trkpt>
      <trkpt lat="45.95853" lon="4.608">
        <ele>435.26</ele>
        <time>2014-01-18T09:46:52Z</time>
      </trkpt>
      <trkpt lat="45.9587" lon="4.60803">
        <ele>435.12</ele>
        <time>2014-01-18T09:46:59Z</time>
      </trkpt>
      <trkpt lat="45.95886" lon="4.60807">
        <ele>435.24</ele>
        <time>2014-01-18T09:47:06Z</time>
      </trkpt>
      <trkpt lat="45.95898" lon="4.60814">
        <ele>434.43</ele>
        <time>2014-01-18T09:47:13Z</time>
      </trkpt>
      <trkpt lat="45.95912" lon="4.60825">
        <ele>433.8</ele>
        <time>2014-01-18T09:47:20Z</time>
      </trkpt>
      <trkpt lat="45.9593" lon="4.6084">
        <ele>433.01</ele>
        <time>2014-01-18T09:47:28Z</time>
      </trkpt>
      <trkpt lat="45.95946" lon="4.60848">
        <ele>432.83</ele>
        <time>2014-01-18T09:47:34Z</time>
      </trkpt>
      <trkpt lat="45.95964" lon="4.60848">
        <ele>432.07</ele>
        <time>2014-01-18T09:47:41Z</time>
      </trkpt>
      <trkpt lat="45.9597" lon="4.60847">
        <ele>432.13</ele>
        <time>2014-01-18T09:47:44Z</time>
      </trkpt>
      <trkpt lat="45.95975" lon="4.60831">
        <ele>432.43</ele>
        <time>2014-01-18T09:47:51Z</time>
      </trkpt>
      <trkpt lat="45.95975" lon="4.60828">
        <ele>432.71</ele>
        <time>2014-01-18T09:47:52Z</time>
      </trkpt>
      <trkpt lat="45.95982" lon="4.60803">
        <ele>433.48</ele>
        <time>2014-01-18T09:48:00Z</time>
      </trkpt>
      <trkpt lat="45.9599" lon="4.60781">
        <ele>434.89</ele>
        <time>2014-01-18T09:48:08Z</time>
      </trkpt>
      <trkpt lat="45.95997" lon="4.6076">
        <ele>435.34</ele>
        <time>2014-01-18T09:48:15Z</time>
      </trkpt>
      <trkpt lat="45.96006" lon="4.6073">
        <ele>436.51</ele>
        <time>2014-01-18T09:48:25Z</time>
      </trkpt>
      <trkpt lat="45.96013" lon="4.60712">
        <ele>436.79</ele>
        <time>2014-01-18T09:48:32Z</time>
      </trkpt>
      <trkpt lat="45.96017" lon="4.60694">
        <ele>437.27</ele>
        <time>2014-01-18T09:48:38Z</time>
      </trkpt>
      <trkpt lat="45.96025" lon="4.60671">
        <ele>437.47</ele>
        <time>2014-01-18T09:48:46Z</time>
      </trkpt>
      <trkpt lat="45.96035" lon="4.60649">
        <ele>438.27</ele>
        <time>2014-01-18T09:48:54Z</time>
      </trkpt>
      <trkpt lat="45.96042" lon="4.60629">
        <ele>438.96</ele>
        <time>2014-01-18T09:49:01Z</time>
      </trkpt>
      <trkpt lat="45.96049" lon="4.60611">
        <ele>439.87</ele>
        <time>2014-01-18T09:49:08Z</time>
      </trkpt>
      <trkpt lat="45.96059" lon="4.6058">
        <ele>441.1</ele>
        <time>2014-01-18T09:49:18Z</time>
      </trkpt>
      <trkpt lat="45.96062" lon="4.60559">
        <ele>442.51</ele>
        <time>2014-01-18T09:49:25Z</time>
      </trkpt>
      <trkpt lat="45.96063" lon="4.60532">
        <ele>444.6</ele>
        <time>2014-01-18T09:49:34Z</time>
      </trkpt>
      <trkpt lat="45.96065" lon="4.60506">
        <ele>445.58</ele>
        <time>2014-01-18T09:49:42Z</time>
      </trkpt>
      <trkpt lat="45.96065" lon="4.60484">
        <ele>446.98</ele>
        <time>2014-01-18T09:49:49Z</time>
      </trkpt>
      <trkpt lat="45.96064" lon="4.60459">
        <ele>449.4</ele>
        <time>2014-01-18T09:49:57Z</time>
      </trkpt>
      <trkpt lat="45.96061" lon="4.60432">
        <ele>449.6</ele>
        <time>2014-01-18T09:50:06Z</time>
      </trkpt>
      <trkpt lat="45.9606" lon="4.6042">
        <ele>450.22</ele>
        <time>2014-01-18T09:50:11Z</time>
      </trkpt>
      <trkpt lat="45.96056" lon="4.60397">
        <ele>451.7</ele>
        <time>2014-01-18T09:50:19Z</time>
      </trkpt>
      <trkpt lat="45.96055" lon="4.60377">
        <ele>452.96</ele>
        <time>2014-01-18T09:50:26Z</time>
      </trkpt>
      <trkpt lat="45.96054" lon="4.60358">
        <ele>454.64</ele>
        <time>2014-01-18T09:50:33Z</time>
      </trkpt>
      <trkpt lat="45.96053" lon="4.60336">
        <ele>456.62</ele>
        <time>2014-01-18T09:50:41Z</time>
      </trkpt>
      <trkpt lat="45.96054" lon="4.60316">
        <ele>457.77</ele>
        <time>2014-01-18T09:50:48Z</time>
      </trkpt>
      <trkpt lat="45.96056" lon="4.60299">
        <ele>458.59</ele>
        <time>2014-01-18T09:50:54Z</time>
      </trkpt>
      <trkpt lat="45.96053" lon="4.60282">
        <ele>459.45</ele>
        <time>2014-01-18T09:51:00Z</time>
      </trkpt>
      <trkpt lat="45.96047" lon="4.6026">
        <ele>460.29</ele>
        <time>2014-01-18T09:51:06Z</time>
      </trkpt>
      <trkpt lat="45.96047" lon="4.60238">
        <ele>461.32</ele>
        <time>2014-01-18T09:51:13Z</time>
      </trkpt>
      <trkpt lat="45.96048" lon="4.60221">
        <ele>462.1</ele>
        <time>2014-01-18T09:51:18Z</time>
      </trkpt>
      <trkpt lat="45.9605" lon="4.60202">
        <ele>463.64</ele>
        <time>2014-01-18T09:51:25Z</time>
      </trkpt>
      <trkpt lat="45.96054" lon="4.60178">
        <ele>465.39</ele>
        <time>2014-01-18T09:51:33Z</time>
      </trkpt>
      <trkpt lat="45.96057" lon="4.60153">
        <ele>465.72</ele>
        <time>2014-01-18T09:51:41Z</time>
      </trkpt>
      <trkpt lat="45.96058" lon="4.60136">
        <ele>467.64</ele>
        <time>2014-01-18T09:51:47Z</time>
      </trkpt>
      <trkpt lat="45.96067" lon="4.60118">
        <ele>468.92</ele>
        <time>2014-01-18T09:51:55Z</time>
      </trkpt>
      <trkpt lat="45.96069" lon="4.60116">
        <ele>469.24</ele>
        <time>2014-01-18T09:51:56Z</time>
      </trkpt>
      <trkpt lat="45.96079" lon="4.60111">
        <ele>470.43</ele>
        <time>2014-01-18T09:52:01Z</time>
      </trkpt>
      <trkpt lat="45.96095" lon="4.60101">
        <ele>472.09</ele>
        <time>2014-01-18T09:52:08Z</time>
      </trkpt>
      <trkpt lat="45.9611" lon="4.60088">
        <ele>473.49</ele>
        <time>2014-01-18T09:52:16Z</time>
      </trkpt>
      <trkpt lat="45.9612" lon="4.60074">
        <ele>474.75</ele>
        <time>2014-01-18T09:52:23Z</time>
      </trkpt>
      <trkpt lat="45.96132" lon="4.60066">
        <ele>475.42</ele>
        <time>2014-01-18T09:52:29Z</time>
      </trkpt>
      <trkpt lat="45.9615" lon="4.60061">
        <ele>476.6</ele>
        <time>2014-01-18T09:52:38Z</time>
      </trkpt>
      <trkpt lat="45.96155" lon="4.60061">
        <ele>477.62</ele>
        <time>2014-01-18T09:52:41Z</time>
      </trkpt>
      <trkpt lat="45.96162" lon="4.60073">
        <ele>479.43</ele>
        <time>2014-01-18T09:52:47Z</time>
      </trkpt>
      <trkpt lat="45.96169" lon="4.60086">
        <ele>481.72</ele>
        <time>2014-01-18T09:52:54Z</time>
      </trkpt>
      <trkpt lat="45.96173" lon="4.60092">
        <ele>482.83</ele>
        <time>2014-01-18T09:52:58Z</time>
      </trkpt>
      <trkpt lat="45.96185" lon="4.60099">
        <ele>484.54</ele>
        <time>2014-01-18T09:53:06Z</time>
      </trkpt>
      <trkpt lat="45.96195" lon="4.60104">
        <ele>487.92</ele>
        <time>2014-01-18T09:53:14Z</time>
      </trkpt>
      <trkpt lat="45.96198" lon="4.60106">
        <ele>488.58</ele>
        <time>2014-01-18T09:53:16Z</time>
      </trkpt>
      <trkpt lat="45.96205" lon="4.60108">
        <ele>490.94</ele>
        <time>2014-01-18T09:53:22Z</time>
      </trkpt>
      <trkpt lat="45.96218" lon="4.60112">
        <ele>492.87</ele>
        <time>2014-01-18T09:53:29Z</time>
      </trkpt>
      <trkpt lat="45.96226" lon="4.60115">
        <ele>494.32</ele>
        <time>2014-01-18T09:53:34Z</time>
      </trkpt>
      <trkpt lat="45.96229" lon="4.60107">
        <ele>495.73</ele>
        <time>2014-01-18T09:53:38Z</time>
      </trkpt>
      <trkpt lat="45.96229" lon="4.60097">
        <ele>496.91</ele>
        <time>2014-01-18T09:53:43Z</time>
      </trkpt>
      <trkpt lat="45.96228" lon="4.60091">
        <ele>498.38</ele>
        <time>2014-01-18T09:53:47Z</time>
      </trkpt>
      <trkpt lat="45.96229" lon="4.60081">
        <ele>499.73</ele>
        <time>2014-01-18T09:53:51Z</time>
      </trkpt>
      <trkpt lat="45.9623" lon="4.60077">
        <ele>500.38</ele>
        <time>2014-01-18T09:53:53Z</time>
      </trkpt>
      <trkpt lat="45.96237" lon="4.6007">
        <ele>502.53</ele>
        <time>2014-01-18T09:54:00Z</time>
      </trkpt>
      <trkpt lat="45.96239" lon="4.60066">
        <ele>503.23</ele>
        <time>2014-01-18T09:54:02Z</time>
      </trkpt>
      <trkpt lat="45.96245" lon="4.60055">
        <ele>506.15</ele>
        <time>2014-01-18T09:54:08Z</time>
      </trkpt>
      <trkpt lat="45.96253" lon="4.60046">
        <ele>509.21</ele>
        <time>2014-01-18T09:54:15Z</time>
      </trkpt>
      <trkpt lat="45.96262" lon="4.60033">
        <ele>512.23</ele>
        <time>2014-01-18T09:54:22Z</time>
      </trkpt>
      <trkpt lat="45.96268" lon="4.60018">
        <ele>514.95</ele>
        <time>2014-01-18T09:54:29Z</time>
      </trkpt>
      <trkpt lat="45.96278" lon="4.60005">
        <ele>517.74</ele>
        <time>2014-01-18T09:54:37Z</time>
      </trkpt>
      <trkpt lat="45.96285" lon="4.60005">
        <ele>518.38</ele>
        <time>2014-01-18T09:54:40Z</time>
      </trkpt>
      <trkpt lat="45.96297" lon="4.59992">
        <ele>521.29</ele>
        <time>2014-01-18T09:54:49Z</time>
      </trkpt>
      <trkpt lat="45.96301" lon="4.59978">
        <ele>523.42</ele>
        <time>2014-01-18T09:54:57Z</time>
      </trkpt>
      <trkpt lat="45.96306" lon="4.59969">
        <ele>526.71</ele>
        <time>2014-01-18T09:55:03Z</time>
      </trkpt>
      <trkpt lat="45.96307" lon="4.59968">
        <ele>527.32</ele>
        <time>2014-01-18T09:55:04Z</time>
      </trkpt>
      <trkpt lat="45.96308" lon="4.59965">
        <ele>528.03</ele>
        <time>2014-01-18T09:55:06Z</time>
      </trkpt>
      <trkpt lat="45.96317" lon="4.59948">
        <ele>531.31</ele>
        <time>2014-01-18T09:55:15Z</time>
      </trkpt>
      <trkpt lat="45.9632" lon="4.59945">
        <ele>532.85</ele>
        <time>2014-01-18T09:55:18Z</time>
      </trkpt>
      <trkpt lat="45.96322" lon="4.59944">
        <ele>533.17</ele>
        <time>2014-01-18T09:55:19Z</time>
      </trkpt>
      <trkpt lat="45.9633" lon="4.59929">
        <ele>536.33</ele>
        <time>2014-01-18T09:55:27Z</time>
      </trkpt>
      <trkpt lat="45.96337" lon="4.59919">
        <ele>539.38</ele>
        <time>2014-01-18T09:55:33Z</time>
      </trkpt>
      <trkpt lat="45.96348" lon="4.59903">
        <ele>541.17</ele>
        <time>2014-01-18T09:55:42Z</time>
      </trkpt>
      <trkpt lat="45.96354" lon="4.59889">
        <ele>543.15</ele>
        <time>2014-01-18T09:55:49Z</time>
      </trkpt>
      <trkpt lat="45.96361" lon="4.59872">
        <ele>546.1</ele>
        <time>2014-01-18T09:55:57Z</time>
      </trkpt>
      <trkpt lat="45.96368" lon="4.59854">
        <ele>547.08</ele>
        <time>2014-01-18T09:56:05Z</time>
      </trkpt>
      <trkpt lat="45.96373" lon="4.59835">
        <ele>547.91</ele>
        <time>2014-01-18T09:56:12Z</time>
      </trkpt>
      <trkpt lat="45.9638" lon="4.59819">
        <ele>550.26</ele>
        <time>2014-01-18T09:56:19Z</time>
      </trkpt>
      <trkpt lat="45.96388" lon="4.59803">
        <ele>551.4</ele>
        <time>2014-01-18T09:56:26Z</time>
      </trkpt>
      <trkpt lat="45.96395" lon="4.59788">
        <ele>552.84</ele>
        <time>2014-01-18T09:56:33Z</time>
      </trkpt>
      <trkpt lat="45.96404" lon="4.59773">
        <ele>554</ele>
        <time>2014-01-18T09:56:40Z</time>
      </trkpt>
      <trkpt lat="45.96415" lon="4.59758">
        <ele>554.73</ele>
        <time>2014-01-18T09:56:48Z</time>
      </trkpt>
      <trkpt lat="45.96429" lon="4.59742">
        <ele>556.14</ele>
        <time>2014-01-18T09:56:56Z</time>
      </trkpt>
      <trkpt lat="45.96442" lon="4.59729">
        <ele>557.75</ele>
        <time>2014-01-18T09:57:04Z</time>
      </trkpt>
      <trkpt lat="45.96449" lon="4.59725">
        <ele>558.79</ele>
        <time>2014-01-18T09:57:08Z</time>
      </trkpt>
      <trkpt lat="45.96464" lon="4.59718">
        <ele>561.03</ele>
        <time>2014-01-18T09:57:16Z</time>
      </trkpt>
      <trkpt lat="45.9647" lon="4.59715">
        <ele>562.19</ele>
        <time>2014-01-18T09:57:20Z</time>
      </trkpt>
      <trkpt lat="45.96477" lon="4.59711">
        <ele>562.83</ele>
        <time>2014-01-18T09:57:24Z</time>
      </trkpt>
      <trkpt lat="45.96493" lon="4.59707">
        <ele>564.12</ele>
        <time>2014-01-18T09:57:33Z</time>
      </trkpt>
      <trkpt lat="45.96494" lon="4.59707">
        <ele>564.58</ele>
        <time>2014-01-18T09:57:34Z</time>
      </trkpt>
      <trkpt lat="45.965" lon="4.59702">
        <ele>566.65</ele>
        <time>2014-01-18T09:57:41Z</time>
      </trkpt>
      <trkpt lat="45.9651" lon="4.59709">
        <ele>568.48</ele>
        <time>2014-01-18T09:57:53Z</time>
      </trkpt>
      <trkpt lat="45.9652" lon="4.59723">
        <ele>569.59</ele>
        <time>2014-01-18T09:58:06Z</time>
      </trkpt>
      <trkpt lat="45.96524" lon="4.59728">
        <ele>570.23</ele>
        <time>2014-01-18T09:58:11Z</time>
      </trkpt>
      <trkpt lat="45.96535" lon="4.59747">
        <ele>572.06</ele>
        <time>2014-01-18T09:58:24Z</time>
      </trkpt>
      <trkpt lat="45.96542" lon="4.59754">
        <ele>574.43</ele>
        <time>2014-01-18T09:58:32Z</time>
      </trkpt>
      <trkpt lat="45.96559" lon="4.59761">
        <ele>575.54</ele>
        <time>2014-01-18T09:58:48Z</time>
      </trkpt>
      <trkpt lat="45.96568" lon="4.59766">
        <ele>575.3</ele>
        <time>2014-01-18T09:59:00Z</time>
      </trkpt>
      <trkpt lat="45.9658" lon="4.59776">
        <ele>577.68</ele>
        <time>2014-01-18T09:59:11Z</time>
      </trkpt>
      <trkpt lat="45.96589" lon="4.59781">
        <ele>577.67</ele>
        <time>2014-01-18T09:59:20Z</time>
      </trkpt>
      <trkpt lat="45.96597" lon="4.59787">
        <ele>578.27</ele>
        <time>2014-01-18T09:59:28Z</time>
      </trkpt>
      <trkpt lat="45.96603" lon="4.5979">
        <ele>578.15</ele>
        <time>2014-01-18T09:59:35Z</time>
      </trkpt>
      <trkpt lat="45.96612" lon="4.59797">
        <ele>579.07</ele>
        <time>2014-01-18T09:59:43Z</time>
      </trkpt>
      <trkpt lat="45.96619" lon="4.59802">
        <ele>578.88</ele>
        <time>2014-01-18T09:59:51Z</time>
      </trkpt>
      <trkpt lat="45.96626" lon="4.59801">
        <ele>578.95</ele>
        <time>2014-01-18T10:00:00Z</time>
      </trkpt>
      <trkpt lat="45.96626" lon="4.598">
        <ele>579.31</ele>
        <time>2014-01-18T10:00:10Z</time>
      </trkpt>
      <trkpt lat="45.96626" lon="4.59799">
        <ele>578.81</ele>
        <time>2014-01-18T10:00:35Z</time>
      </trkpt>
      <trkpt lat="45.96625" lon="4.59793">
        <ele>579.07</ele>
        <time>2014-01-18T10:01:07Z</time>
      </trkpt>
      <trkpt lat="45.96624" lon="4.59794">
        <ele>579.59</ele>
        <time>2014-01-18T10:01:35Z</time>
      </trkpt>
      <trkpt lat="45.96623" lon="4.59796">
        <ele>580.06</ele>
        <time>2014-01-18T10:01:52Z</time>
      </trkpt>
      <trkpt lat="45.96623" lon="4.59796">
        <ele>579.9</ele>
        <time>2014-01-18T10:02:09Z</time>
      </trkpt>
      <trkpt lat="45.96623" lon="4.59796">
        <ele>579.27</ele>
        <time>2014-01-18T10:02:24Z</time>
      </trkpt>
      <trkpt lat="45.96625" lon="4.59795">
        <ele>579.66</ele>
        <time>2014-01-18T10:02:42Z</time>
      </trkpt>
      <trkpt lat="45.96625" lon="4.59795">
        <ele>579.67</ele>
        <time>2014-01-18T10:02:57Z</time>
      </trkpt>
      <trkpt lat="45.96623" lon="4.59795">
        <ele>580.02</ele>
        <time>2014-01-18T10:03:08Z</time>
      </trkpt>
      <trkpt lat="45.96625" lon="4.59797">
        <ele>579.92</ele>
        <time>2014-01-18T10:03:23Z</time>
      </trkpt>
      <trkpt lat="45.96624" lon="4.59796">
        <ele>580.11</ele>
        <time>2014-01-18T10:03:32Z</time>
      </trkpt>
      <trkpt lat="45.96624" lon="4.59795">
        <ele>580.23</ele>
        <time>2014-01-18T10:03:33Z</time>
      </trkpt>
      <trkpt lat="45.96619" lon="4.59789">
        <ele>580.36</ele>
        <time>2014-01-18T10:03:37Z</time>
      </trkpt>
      <trkpt lat="45.96608" lon="4.59771">
        <ele>580.08</ele>
        <time>2014-01-18T10:03:45Z</time>
      </trkpt>
      <trkpt lat="45.96599" lon="4.59758">
        <ele>582.74</ele>
        <time>2014-01-18T10:03:52Z</time>
      </trkpt>
      <trkpt lat="45.9659" lon="4.59745">
        <ele>585.2</ele>
        <time>2014-01-18T10:04:00Z</time>
      </trkpt>
      <trkpt lat="45.96581" lon="4.59729">
        <ele>586.95</ele>
        <time>2014-01-18T10:04:07Z</time>
      </trkpt>
      <trkpt lat="45.9657" lon="4.59715">
        <ele>587.64</ele>
        <time>2014-01-18T10:04:14Z</time>
      </trkpt>
      <trkpt lat="45.96563" lon="4.59697">
        <ele>587.73</ele>
        <time>2014-01-18T10:04:21Z</time>
      </trkpt>
      <trkpt lat="45.96558" lon="4.59684">
        <ele>587.27</ele>
        <time>2014-01-18T10:04:27Z</time>
      </trkpt>
      <trkpt lat="45.96555" lon="4.5967">
        <ele>587.05</ele>
        <time>2014-01-18T10:04:32Z</time>
      </trkpt>
      <trkpt lat="45.96554" lon="4.59663">
        <ele>587.16</ele>
        <time>2014-01-18T10:04:34Z</time>
      </trkpt>
      <trkpt lat="45.96553" lon="4.59651">
        <ele>587.84</ele>
        <time>2014-01-18T10:04:39Z</time>
      </trkpt>
      <trkpt lat="45.96546" lon="4.59628">
        <ele>588.55</ele>
        <time>2014-01-18T10:04:46Z</time>
      </trkpt>
      <trkpt lat="45.96538" lon="4.59612">
        <ele>589.21</ele>
        <time>2014-01-18T10:04:52Z</time>
      </trkpt>
      <trkpt lat="45.96531" lon="4.59592">
        <ele>589.25</ele>
        <time>2014-01-18T10:04:58Z</time>
      </trkpt>
      <trkpt lat="45.96523" lon="4.5957">
        <ele>589.89</ele>
        <time>2014-01-18T10:05:05Z</time>
      </trkpt>
      <trkpt lat="45.96517" lon="4.5956">
        <ele>590.24</ele>
        <time>2014-01-18T10:05:09Z</time>
      </trkpt>
      <trkpt lat="45.9651" lon="4.59544">
        <ele>591.01</ele>
        <time>2014-01-18T10:05:14Z</time>
      </trkpt>
      <trkpt lat="45.96501" lon="4.5953">
        <ele>592.41</ele>
        <time>2014-01-18T10:05:21Z</time>
      </trkpt>
      <trkpt lat="45.96492" lon="4.59516">
        <ele>594.18</ele>
        <time>2014-01-18T10:05:28Z</time>
      </trkpt>
      <trkpt lat="45.96488" lon="4.59513">
        <ele>594.52</ele>
        <time>2014-01-18T10:05:30Z</time>
      </trkpt>
      <trkpt lat="45.96477" lon="4.59504">
        <ele>595.84</ele>
        <time>2014-01-18T10:05:36Z</time>
      </trkpt>
      <trkpt lat="45.96474" lon="4.59501">
        <ele>596.84</ele>
        <time>2014-01-18T10:05:38Z</time>
      </trkpt>
      <trkpt lat="45.96471" lon="4.59499">
        <ele>597.22</ele>
        <time>2014-01-18T10:05:40Z</time>
      </trkpt>
      <trkpt lat="45.96467" lon="4.59489">
        <ele>599.22</ele>
        <time>2014-01-18T10:05:46Z</time>
      </trkpt>
      <trkpt lat="45.96466" lon="4.59488">
        <ele>599.62</ele>
        <time>2014-01-18T10:05:47Z</time>
      </trkpt>
      <trkpt lat="45.96455" lon="4.59476">
        <ele>602.05</ele>
        <time>2014-01-18T10:05:55Z</time>
      </trkpt>
      <trkpt lat="45.96452" lon="4.59474">
        <ele>603.01</ele>
        <time>2014-01-18T10:05:58Z</time>
      </trkpt>
      <trkpt lat="45.96442" lon="4.59462">
        <ele>605.52</ele>
        <time>2014-01-18T10:06:05Z</time>
      </trkpt>
      <trkpt lat="45.96434" lon="4.59458">
        <ele>607.27</ele>
        <time>2014-01-18T10:06:09Z</time>
      </trkpt>
      <trkpt lat="45.96433" lon="4.59457">
        <ele>607.28</ele>
        <time>2014-01-18T10:06:10Z</time>
      </trkpt>
      <trkpt lat="45.96414" lon="4.59447">
        <ele>609.31</ele>
        <time>2014-01-18T10:06:19Z</time>
      </trkpt>
      <trkpt lat="45.96408" lon="4.59444">
        <ele>610.92</ele>
        <time>2014-01-18T10:06:22Z</time>
      </trkpt>
      <trkpt lat="45.96398" lon="4.59438">
        <ele>612.36</ele>
        <time>2014-01-18T10:06:28Z</time>
      </trkpt>
      <trkpt lat="45.96391" lon="4.59432">
        <ele>614.04</ele>
        <time>2014-01-18T10:06:32Z</time>
      </trkpt>
      <trkpt lat="45.96379" lon="4.59425">
        <ele>616.2</ele>
        <time>2014-01-18T10:06:40Z</time>
      </trkpt>
      <trkpt lat="45.96369" lon="4.5942">
        <ele>617.64</ele>
        <time>2014-01-18T10:06:47Z</time>
      </trkpt>
      <trkpt lat="45.96364" lon="4.59418">
        <ele>619.3</ele>
        <time>2014-01-18T10:06:50Z</time>
      </trkpt>
      <trkpt lat="45.96353" lon="4.59413">
        <ele>620.46</ele>
        <time>2014-01-18T10:06:57Z</time>
      </trkpt>
      <trkpt lat="45.96343" lon="4.59409">
        <ele>620.93</ele>
        <time>2014-01-18T10:07:03Z</time>
      </trkpt>
      <trkpt lat="45.96333" lon="4.59404">
        <ele>623.15</ele>
        <time>2014-01-18T10:07:10Z</time>
      </trkpt>
      <trkpt lat="45.9632" lon="4.59388">
        <ele>625.52</ele>
        <time>2014-01-18T10:07:18Z</time>
      </trkpt>
      <trkpt lat="45.96318" lon="4.59386">
        <ele>625.77</ele>
        <time>2014-01-18T10:07:19Z</time>
      </trkpt>
      <trkpt lat="45.96314" lon="4.59381">
        <ele>627.95</ele>
        <time>2014-01-18T10:07:23Z</time>
      </trkpt>
      <trkpt lat="45.96305" lon="4.59372">
        <ele>630.25</ele>
        <time>2014-01-18T10:07:31Z</time>
      </trkpt>
      <trkpt lat="45.96301" lon="4.59364">
        <ele>632.08</ele>
        <time>2014-01-18T10:07:36Z</time>
      </trkpt>
      <trkpt lat="45.96289" lon="4.59352">
        <ele>633.13</ele>
        <time>2014-01-18T10:07:45Z</time>
      </trkpt>
      <trkpt lat="45.96276" lon="4.59345">
        <ele>635.42</ele>
        <time>2014-01-18T10:07:53Z</time>
      </trkpt>
      <trkpt lat="45.96261" lon="4.59337">
        <ele>638.21</ele>
        <time>2014-01-18T10:08:00Z</time>
      </trkpt>
      <trkpt lat="45.96252" lon="4.59329">
        <ele>639.66</ele>
        <time>2014-01-18T10:08:07Z</time>
      </trkpt>
      <trkpt lat="45.96245" lon="4.59326">
        <ele>640.66</ele>
        <time>2014-01-18T10:08:14Z</time>
      </trkpt>
      <trkpt lat="45.96238" lon="4.59323">
        <ele>640.47</ele>
        <time>2014-01-18T10:08:21Z</time>
      </trkpt>
      <trkpt lat="45.96224" lon="4.59317">
        <ele>641.23</ele>
        <time>2014-01-18T10:08:30Z</time>
      </trkpt>
      <trkpt lat="45.96214" lon="4.59311">
        <ele>642.04</ele>
        <time>2014-01-18T10:08:44Z</time>
      </trkpt>
      <trkpt lat="45.962" lon="4.59304">
        <ele>642.15</ele>
        <time>2014-01-18T10:08:59Z</time>
      </trkpt>
      <trkpt lat="45.96192" lon="4.59297">
        <ele>642.02</ele>
        <time>2014-01-18T10:09:07Z</time>
      </trkpt>
      <trkpt lat="45.96174" lon="4.59286">
        <ele>642.01</ele>
        <time>2014-01-18T10:09:23Z</time>
      </trkpt>
      <trkpt lat="45.96159" lon="4.59273">
        <ele>641.13</ele>
        <time>2014-01-18T10:09:37Z</time>
      </trkpt>
      <trkpt lat="45.96143" lon="4.59266">
        <ele>640.88</ele>
        <time>2014-01-18T10:09:44Z</time>
      </trkpt>
      <trkpt lat="45.96131" lon="4.59261">
        <ele>640.3</ele>
        <time>2014-01-18T10:09:49Z</time>
      </trkpt>
      <trkpt lat="45.96113" lon="4.59251">
        <ele>640.42</ele>
        <time>2014-01-18T10:09:57Z</time>
      </trkpt>
      <trkpt lat="45.96098" lon="4.59248">
        <ele>639.59</ele>
        <time>2014-01-18T10:10:03Z</time>
      </trkpt>
      <trkpt lat="45.9608" lon="4.59244">
        <ele>639.33</ele>
        <time>2014-01-18T10:10:09Z</time>
      </trkpt>
      <trkpt lat="45.96062" lon="4.59239">
        <ele>638.86</ele>
        <time>2014-01-18T10:10:16Z</time>
      </trkpt>
      <trkpt lat="45.96048" lon="4.59236">
        <ele>639.41</ele>
        <time>2014-01-18T10:10:22Z</time>
      </trkpt>
      <trkpt lat="45.96034" lon="4.5923">
        <ele>638.29</ele>
        <time>2014-01-18T10:10:28Z</time>
      </trkpt>
      <trkpt lat="45.96021" lon="4.5922">
        <ele>638.02</ele>
        <time>2014-01-18T10:10:36Z</time>
      </trkpt>
      <trkpt lat="45.96007" lon="4.59207">
        <ele>637.38</ele>
        <time>2014-01-18T10:10:43Z</time>
      </trkpt>
      <trkpt lat="45.95997" lon="4.59194">
        <ele>636.54</ele>
        <time>2014-01-18T10:10:50Z</time>
      </trkpt>
      <trkpt lat="45.95978" lon="4.59174">
        <ele>634.98</ele>
        <time>2014-01-18T10:10:58Z</time>
      </trkpt>
      <trkpt lat="45.95957" lon="4.59154">
        <ele>632.54</ele>
        <time>2014-01-18T10:11:07Z</time>
      </trkpt>
      <trkpt lat="45.95946" lon="4.59155">
        <ele>632.07</ele>
        <time>2014-01-18T10:11:13Z</time>
      </trkpt>
      <trkpt lat="45.9593" lon="4.59166">
        <ele>633.78</ele>
        <time>2014-01-18T10:11:21Z</time>
      </trkpt>
      <trkpt lat="45.95912" lon="4.59186">
        <ele>635.02</ele>
        <time>2014-01-18T10:11:30Z</time>
      </trkpt>
      <trkpt lat="45.95896" lon="4.59204">
        <ele>635.78</ele>
        <time>2014-01-18T10:11:39Z</time>
      </trkpt>
      <trkpt lat="45.95878" lon="4.59213">
        <ele>637.13</ele>
        <time>2014-01-18T10:11:48Z</time>
      </trkpt>
      <trkpt lat="45.9587" lon="4.59219">
        <ele>637.14</ele>
        <time>2014-01-18T10:11:52Z</time>
      </trkpt>
      <trkpt lat="45.95849" lon="4.59222">
        <ele>638.24</ele>
        <time>2014-01-18T10:12:01Z</time>
      </trkpt>
      <trkpt lat="45.95833" lon="4.59227">
        <ele>638.78</ele>
        <time>2014-01-18T10:12:08Z</time>
      </trkpt>
      <trkpt lat="45.95813" lon="4.59232">
        <ele>638.37</ele>
        <time>2014-01-18T10:12:16Z</time>
      </trkpt>
      <trkpt lat="45.9581" lon="4.59235">
        <ele>638.16</ele>
        <time>2014-01-18T10:12:17Z</time>
      </trkpt>
      <trkpt lat="45.95797" lon="4.59242">
        <ele>637.98</ele>
        <time>2014-01-18T10:12:22Z</time>
      </trkpt>
      <trkpt lat="45.95782" lon="4.5925">
        <ele>639.43</ele>
        <time>2014-01-18T10:12:29Z</time>
      </trkpt>
      <trkpt lat="45.95767" lon="4.59258">
        <ele>640.54</ele>
        <time>2014-01-18T10:12:36Z</time>
      </trkpt>
      <trkpt lat="45.95755" lon="4.59271">
        <ele>642.26</ele>
        <time>2014-01-18T10:12:42Z</time>
      </trkpt>
      <trkpt lat="45.95742" lon="4.59282">
        <ele>642.33</ele>
        <time>2014-01-18T10:12:48Z</time>
      </trkpt>
      <trkpt lat="45.95727" lon="4.5929">
        <ele>643.38</ele>
        <time>2014-01-18T10:12:55Z</time>
      </trkpt>
      <trkpt lat="45.95711" lon="4.59298">
        <ele>644.43</ele>
        <time>2014-01-18T10:13:02Z</time>
      </trkpt>
      <trkpt lat="45.95691" lon="4.59305">
        <ele>645.37</ele>
        <time>2014-01-18T10:13:11Z</time>
      </trkpt>
      <trkpt lat="45.95675" lon="4.59313">
        <ele>645.8</ele>
        <time>2014-01-18T10:13:19Z</time>
      </trkpt>
      <trkpt lat="45.95662" lon="4.59321">
        <ele>647.42</ele>
        <time>2014-01-18T10:13:25Z</time>
      </trkpt>
      <trkpt lat="45.95646" lon="4.59331">
        <ele>648.32</ele>
        <time>2014-01-18T10:13:32Z</time>
      </trkpt>
      <trkpt lat="45.9563" lon="4.59336">
        <ele>648.3</ele>
        <time>2014-01-18T10:13:39Z</time>
      </trkpt>
      <trkpt lat="45.95614" lon="4.59344">
        <ele>649.27</ele>
        <time>2014-01-18T10:13:46Z</time>
      </trkpt>
      <trkpt lat="45.95595" lon="4.59355">
        <ele>650.66</ele>
        <time>2014-01-18T10:13:55Z</time>
      </trkpt>
      <trkpt lat="45.95576" lon="4.59364">
        <ele>651.23</ele>
        <time>2014-01-18T10:14:03Z</time>
      </trkpt>
      <trkpt lat="45.9556" lon="4.59375">
        <ele>651.66</ele>
        <time>2014-01-18T10:14:11Z</time>
      </trkpt>
      <trkpt lat="45.95547" lon="4.59382">
        <ele>652.36</ele>
        <time>2014-01-18T10:14:17Z</time>
      </trkpt>
      <trkpt lat="45.9553" lon="4.59398">
        <ele>652.78</ele>
        <time>2014-01-18T10:14:25Z</time>
      </trkpt>
      <trkpt lat="45.95523" lon="4.59404">
        <ele>654.14</ele>
        <time>2014-01-18T10:14:30Z</time>
      </trkpt>
      <trkpt lat="45.95519" lon="4.59404">
        <ele>654.09</ele>
        <time>2014-01-18T10:14:40Z</time>
      </trkpt>
      <trkpt lat="45.95523" lon="4.59407">
        <ele>654.02</ele>
        <time>2014-01-18T10:14:49Z</time>
      </trkpt>
      <trkpt lat="45.95522" lon="4.59406">
        <ele>653.82</ele>
        <time>2014-01-18T10:14:51Z</time>
      </trkpt>
      <trkpt lat="45.95504" lon="4.59404">
        <ele>653.92</ele>
        <time>2014-01-18T10:14:57Z</time>
      </trkpt>
      <trkpt lat="45.9549" lon="4.59416">
        <ele>655.2</ele>
        <time>2014-01-18T10:15:04Z</time>
      </trkpt>
      <trkpt lat="45.95479" lon="4.59428">
        <ele>657.14</ele>
        <time>2014-01-18T10:15:10Z</time>
      </trkpt>
      <trkpt lat="45.95464" lon="4.59443">
        <ele>655.95</ele>
        <time>2014-01-18T10:15:17Z</time>
      </trkpt>
      <trkpt lat="45.95446" lon="4.59463">
        <ele>657.07</ele>
        <time>2014-01-18T10:15:25Z</time>
      </trkpt>
      <trkpt lat="45.95433" lon="4.59473">
        <ele>656.56</ele>
        <time>2014-01-18T10:15:31Z</time>
      </trkpt>
      <trkpt lat="45.95432" lon="4.59476">
        <ele>656.38</ele>
        <time>2014-01-18T10:15:32Z</time>
      </trkpt>
      <trkpt lat="45.95417" lon="4.59488">
        <ele>655.73</ele>
        <time>2014-01-18T10:15:40Z</time>
      </trkpt>
      <trkpt lat="45.95407" lon="4.59494">
        <ele>655.5</ele>
        <time>2014-01-18T10:15:45Z</time>
      </trkpt>
      <trkpt lat="45.9539" lon="4.59517">
        <ele>654.21</ele>
        <time>2014-01-18T10:15:54Z</time>
      </trkpt>
      <trkpt lat="45.9538" lon="4.59534">
        <ele>654.18</ele>
        <time>2014-01-18T10:16:00Z</time>
      </trkpt>
      <trkpt lat="45.95373" lon="4.59551">
        <ele>653.83</ele>
        <time>2014-01-18T10:16:06Z</time>
      </trkpt>
      <trkpt lat="45.95366" lon="4.59571">
        <ele>653.24</ele>
        <time>2014-01-18T10:16:13Z</time>
      </trkpt>
      <trkpt lat="45.9536" lon="4.59588">
        <ele>652.32</ele>
        <time>2014-01-18T10:16:20Z</time>
      </trkpt>
      <trkpt lat="45.95351" lon="4.59609">
        <ele>652.38</ele>
        <time>2014-01-18T10:16:27Z</time>
      </trkpt>
      <trkpt lat="45.95341" lon="4.59628">
        <ele>652.3</ele>
        <time>2014-01-18T10:16:33Z</time>
      </trkpt>
      <trkpt lat="45.95332" lon="4.59647">
        <ele>651.93</ele>
        <time>2014-01-18T10:16:40Z</time>
      </trkpt>
      <trkpt lat="45.9533" lon="4.59661">
        <ele>652.26</ele>
        <time>2014-01-18T10:16:45Z</time>
      </trkpt>
      <trkpt lat="45.95318" lon="4.59672">
        <ele>650.01</ele>
        <time>2014-01-18T10:16:52Z</time>
      </trkpt>
      <trkpt lat="45.95315" lon="4.59676">
        <ele>650.22</ele>
        <time>2014-01-18T10:16:54Z</time>
      </trkpt>
      <trkpt lat="45.95307" lon="4.59688">
        <ele>650.24</ele>
        <time>2014-01-18T10:16:58Z</time>
      </trkpt>
      <trkpt lat="45.95297" lon="4.59712">
        <ele>647.93</ele>
        <time>2014-01-18T10:17:06Z</time>
      </trkpt>
      <trkpt lat="45.95289" lon="4.59733">
        <ele>646.9</ele>
        <time>2014-01-18T10:17:12Z</time>
      </trkpt>
      <trkpt lat="45.95282" lon="4.59754">
        <ele>645.56</ele>
        <time>2014-01-18T10:17:18Z</time>
      </trkpt>
      <trkpt lat="45.95278" lon="4.59766">
        <ele>644.53</ele>
        <time>2014-01-18T10:17:23Z</time>
      </trkpt>
      <trkpt lat="45.95271" lon="4.59784">
        <ele>643.41</ele>
        <time>2014-01-18T10:17:28Z</time>
      </trkpt>
      <trkpt lat="45.95266" lon="4.59802">
        <ele>641.99</ele>
        <time>2014-01-18T10:17:35Z</time>
      </trkpt>
      <trkpt lat="45.95261" lon="4.59818">
        <ele>640.99</ele>
        <time>2014-01-18T10:17:41Z</time>
      </trkpt>
      <trkpt lat="45.95257" lon="4.59837">
        <ele>639.17</ele>
        <time>2014-01-18T10:17:48Z</time>
      </trkpt>
      <trkpt lat="45.95252" lon="4.59856">
        <ele>637.3</ele>
        <time>2014-01-18T10:17:54Z</time>
      </trkpt>
      <trkpt lat="45.95247" lon="4.59875">
        <ele>634.58</ele>
        <time>2014-01-18T10:18:00Z</time>
      </trkpt>
      <trkpt lat="45.95246" lon="4.5988">
        <ele>633.81</ele>
        <time>2014-01-18T10:18:02Z</time>
      </trkpt>
      <trkpt lat="45.95245" lon="4.59885">
        <ele>632.99</ele>
        <time>2014-01-18T10:18:04Z</time>
      </trkpt>
      <trkpt lat="45.9524" lon="4.59903">
        <ele>630.86</ele>
        <time>2014-01-18T10:18:11Z</time>
      </trkpt>
      <trkpt lat="45.95238" lon="4.59913">
        <ele>630.25</ele>
        <time>2014-01-18T10:18:14Z</time>
      </trkpt>
      <trkpt lat="45.95237" lon="4.59922">
        <ele>628.96</ele>
        <time>2014-01-18T10:18:17Z</time>
      </trkpt>
      <trkpt lat="45.95235" lon="4.59932">
        <ele>627.39</ele>
        <time>2014-01-18T10:18:21Z</time>
      </trkpt>
      <trkpt lat="45.95233" lon="4.59942">
        <ele>625.86</ele>
        <time>2014-01-18T10:18:25Z</time>
      </trkpt>
      <trkpt lat="45.95231" lon="4.59951">
        <ele>624.3</ele>
        <time>2014-01-18T10:18:28Z</time>
      </trkpt>
      <trkpt lat="45.9523" lon="4.59955">
        <ele>624.16</ele>
        <time>2014-01-18T10:18:29Z</time>
      </trkpt>
      <trkpt lat="45.9522" lon="4.59979">
        <ele>622.73</ele>
        <time>2014-01-18T10:18:36Z</time>
      </trkpt>
      <trkpt lat="45.95212" lon="4.60001">
        <ele>619.71</ele>
        <time>2014-01-18T10:18:42Z</time>
      </trkpt>
      <trkpt lat="45.95202" lon="4.60023">
        <ele>616.4</ele>
        <time>2014-01-18T10:18:48Z</time>
      </trkpt>
      <trkpt lat="45.95196" lon="4.6003">
        <ele>614.31</ele>
        <time>2014-01-18T10:18:51Z</time>
      </trkpt>
      <trkpt lat="45.95191" lon="4.60038">
        <ele>612.82</ele>
        <time>2014-01-18T10:18:54Z</time>
      </trkpt>
      <trkpt lat="45.95188" lon="4.60043">
        <ele>612.11</ele>
        <time>2014-01-18T10:18:56Z</time>
      </trkpt>
      <trkpt lat="45.95184" lon="4.60054">
        <ele>611.6</ele>
        <time>2014-01-18T10:19:00Z</time>
      </trkpt>
      <trkpt lat="45.95176" lon="4.6007">
        <ele>607.46</ele>
        <time>2014-01-18T10:19:06Z</time>
      </trkpt>
      <trkpt lat="45.95174" lon="4.60078">
        <ele>606.07</ele>
        <time>2014-01-18T10:19:09Z</time>
      </trkpt>
      <trkpt lat="45.95168" lon="4.60092">
        <ele>604.42</ele>
        <time>2014-01-18T10:19:13Z</time>
      </trkpt>
      <trkpt lat="45.95159" lon="4.60108">
        <ele>601.84</ele>
        <time>2014-01-18T10:19:18Z</time>
      </trkpt>
      <trkpt lat="45.95157" lon="4.60111">
        <ele>601.3</ele>
        <time>2014-01-18T10:19:19Z</time>
      </trkpt>
      <trkpt lat="45.95146" lon="4.60121">
        <ele>598.75</ele>
        <time>2014-01-18T10:19:23Z</time>
      </trkpt>
      <trkpt lat="45.95137" lon="4.60131">
        <ele>596.34</ele>
        <time>2014-01-18T10:19:27Z</time>
      </trkpt>
      <trkpt lat="45.95125" lon="4.60149">
        <ele>593.54</ele>
        <time>2014-01-18T10:19:33Z</time>
      </trkpt>
      <trkpt lat="45.95123" lon="4.60152">
        <ele>592.88</ele>
        <time>2014-01-18T10:19:34Z</time>
      </trkpt>
      <trkpt lat="45.95111" lon="4.60174">
        <ele>591</ele>
        <time>2014-01-18T10:19:41Z</time>
      </trkpt>
      <trkpt lat="45.95101" lon="4.60192">
        <ele>587.98</ele>
        <time>2014-01-18T10:19:46Z</time>
      </trkpt>
      <trkpt lat="45.95091" lon="4.6021">
        <ele>584.5</ele>
        <time>2014-01-18T10:19:52Z</time>
      </trkpt>
      <trkpt lat="45.95089" lon="4.60212">
        <ele>584.26</ele>
        <time>2014-01-18T10:19:53Z</time>
      </trkpt>
      <trkpt lat="45.95086" lon="4.60219">
        <ele>582.81</ele>
        <time>2014-01-18T10:19:59Z</time>
      </trkpt>
      <trkpt lat="45.95083" lon="4.60219">
        <ele>581.39</ele>
        <time>2014-01-18T10:20:07Z</time>
      </trkpt>
      <trkpt lat="45.95082" lon="4.6022">
        <ele>581.48</ele>
        <time>2014-01-18T10:20:17Z</time>
      </trkpt>
      <trkpt lat="45.95081" lon="4.6022">
        <ele>582.71</ele>
        <time>2014-01-18T10:20:31Z</time>
      </trkpt>
      <trkpt lat="45.95075" lon="4.60231">
        <ele>581.82</ele>
        <time>2014-01-18T10:20:35Z</time>
      </trkpt>
      <trkpt lat="45.95056" lon="4.60247">
        <ele>579.75</ele>
        <time>2014-01-18T10:20:43Z</time>
      </trkpt>
      <trkpt lat="45.95037" lon="4.6026">
        <ele>579.62</ele>
        <time>2014-01-18T10:20:51Z</time>
      </trkpt>
      <trkpt lat="45.95018" lon="4.60276">
        <ele>578.34</ele>
        <time>2014-01-18T10:20:59Z</time>
      </trkpt>
      <trkpt lat="45.95005" lon="4.60289">
        <ele>578.63</ele>
        <time>2014-01-18T10:21:05Z</time>
      </trkpt>
      <trkpt lat="45.94994" lon="4.60307">
        <ele>579.72</ele>
        <time>2014-01-18T10:21:12Z</time>
      </trkpt>
      <trkpt lat="45.94993" lon="4.60307">
        <ele>580.29</ele>
        <time>2014-01-18T10:21:18Z</time>
      </trkpt>
      <trkpt lat="45.94987" lon="4.60316">
        <ele>579.87</ele>
        <time>2014-01-18T10:21:25Z</time>
      </trkpt>
      <trkpt lat="45.94974" lon="4.6034">
        <ele>580.67</ele>
        <time>2014-01-18T10:21:32Z</time>
      </trkpt>
      <trkpt lat="45.94959" lon="4.60364">
        <ele>582.2</ele>
        <time>2014-01-18T10:21:40Z</time>
      </trkpt>
      <trkpt lat="45.94945" lon="4.60385">
        <ele>581.74</ele>
        <time>2014-01-18T10:21:47Z</time>
      </trkpt>
      <trkpt lat="45.9493" lon="4.60405">
        <ele>582.17</ele>
        <time>2014-01-18T10:21:54Z</time>
      </trkpt>
      <trkpt lat="45.94911" lon="4.60428">
        <ele>582.38</ele>
        <time>2014-01-18T10:22:03Z</time>
      </trkpt>
      <trkpt lat="45.94898" lon="4.60451">
        <ele>583.65</ele>
        <time>2014-01-18T10:22:11Z</time>
      </trkpt>
      <trkpt lat="45.94885" lon="4.60471">
        <ele>584.35</ele>
        <time>2014-01-18T10:22:19Z</time>
      </trkpt>
      <trkpt lat="45.94874" lon="4.60488">
        <ele>585.96</ele>
        <time>2014-01-18T10:22:26Z</time>
      </trkpt>
      <trkpt lat="45.94862" lon="4.60509">
        <ele>586.02</ele>
        <time>2014-01-18T10:22:34Z</time>
      </trkpt>
      <trkpt lat="45.9485" lon="4.60528">
        <ele>585.64</ele>
        <time>2014-01-18T10:22:42Z</time>
      </trkpt>
      <trkpt lat="45.94837" lon="4.60551">
        <ele>586.1</ele>
        <time>2014-01-18T10:22:50Z</time>
      </trkpt>
      <trkpt lat="45.94829" lon="4.60566">
        <ele>589.18</ele>
        <time>2014-01-18T10:22:55Z</time>
      </trkpt>
      <trkpt lat="45.94828" lon="4.60568">
        <ele>589.26</ele>
        <time>2014-01-18T10:22:56Z</time>
      </trkpt>
      <trkpt lat="45.94821" lon="4.60591">
        <ele>590.09</ele>
        <time>2014-01-18T10:23:04Z</time>
      </trkpt>
      <trkpt lat="45.94817" lon="4.60613">
        <ele>588.85</ele>
        <time>2014-01-18T10:23:11Z</time>
      </trkpt>
      <trkpt lat="45.94816" lon="4.60626">
        <ele>587.32</ele>
        <time>2014-01-18T10:23:15Z</time>
      </trkpt>
      <trkpt lat="45.94811" lon="4.60652">
        <ele>586.96</ele>
        <time>2014-01-18T10:23:22Z</time>
      </trkpt>
      <trkpt lat="45.94807" lon="4.60668">
        <ele>587.09</ele>
        <time>2014-01-18T10:23:28Z</time>
      </trkpt>
      <trkpt lat="45.94805" lon="4.60686">
        <ele>588.01</ele>
        <time>2014-01-18T10:23:34Z</time>
      </trkpt>
      <trkpt lat="45.94802" lon="4.60705">
        <ele>590.74</ele>
        <time>2014-01-18T10:23:41Z</time>
      </trkpt>
      <trkpt lat="45.948" lon="4.60714">
        <ele>592.19</ele>
        <time>2014-01-18T10:23:45Z</time>
      </trkpt>
      <trkpt lat="45.94799" lon="4.60726">
        <ele>596.06</ele>
        <time>2014-01-18T10:23:50Z</time>
      </trkpt>
      <trkpt lat="45.94799" lon="4.60729">
        <ele>596.19</ele>
        <time>2014-01-18T10:23:51Z</time>
      </trkpt>
      <trkpt lat="45.94797" lon="4.60744">
        <ele>599.42</ele>
        <time>2014-01-18T10:23:57Z</time>
      </trkpt>
      <trkpt lat="45.94796" lon="4.6075">
        <ele>600.78</ele>
        <time>2014-01-18T10:24:00Z</time>
      </trkpt>
      <trkpt lat="45.94795" lon="4.60756">
        <ele>602.43</ele>
        <time>2014-01-18T10:24:03Z</time>
      </trkpt>
      <trkpt lat="45.94795" lon="4.60757">
        <ele>602.91</ele>
        <time>2014-01-18T10:24:04Z</time>
      </trkpt>
      <trkpt lat="45.94793" lon="4.60763">
        <ele>604.56</ele>
        <time>2014-01-18T10:24:07Z</time>
      </trkpt>
      <trkpt lat="45.94791" lon="4.60764">
        <ele>606.78</ele>
        <time>2014-01-18T10:24:11Z</time>
      </trkpt>
      <trkpt lat="45.9479" lon="4.60766">
        <ele>607.47</ele>
        <time>2014-01-18T10:24:13Z</time>
      </trkpt>
      <trkpt lat="45.94791" lon="4.60774">
        <ele>610.06</ele>
        <time>2014-01-18T10:24:19Z</time>
      </trkpt>
      <trkpt lat="45.94788" lon="4.60775">
        <ele>610.35</ele>
        <time>2014-01-18T10:24:24Z</time>
      </trkpt>
      <trkpt lat="45.94787" lon="4.60779">
        <ele>610.71</ele>
        <time>2014-01-18T10:24:37Z</time>
      </trkpt>
      <trkpt lat="45.94783" lon="4.60785">
        <ele>610.23</ele>
        <time>2014-01-18T10:24:45Z</time>
      </trkpt>
      <trkpt lat="45.94777" lon="4.60792">
        <ele>610.91</ele>
        <time>2014-01-18T10:24:56Z</time>
      </trkpt>
      <trkpt lat="45.94774" lon="4.60795">
        <ele>612.35</ele>
        <time>2014-01-18T10:25:00Z</time>
      </trkpt>
      <trkpt lat="45.9477" lon="4.60801">
        <ele>613.05</ele>
        <time>2014-01-18T10:25:07Z</time>
      </trkpt>
      <trkpt lat="45.94756" lon="4.60813">
        <ele>612.12</ele>
        <time>2014-01-18T10:25:15Z</time>
      </trkpt>
      <trkpt lat="45.94745" lon="4.60823">
        <ele>608.67</ele>
        <time>2014-01-18T10:25:20Z</time>
      </trkpt>
      <trkpt lat="45.94743" lon="4.60825">
        <ele>608.4</ele>
        <time>2014-01-18T10:25:21Z</time>
      </trkpt>
      <trkpt lat="45.94726" lon="4.60838">
        <ele>605.93</ele>
        <time>2014-01-18T10:25:28Z</time>
      </trkpt>
      <trkpt lat="45.947" lon="4.60857">
        <ele>605.1</ele>
        <time>2014-01-18T10:25:38Z</time>
      </trkpt>
      <trkpt lat="45.94683" lon="4.60865">
        <ele>603.44</ele>
        <time>2014-01-18T10:25:44Z</time>
      </trkpt>
      <trkpt lat="45.94667" lon="4.60877">
        <ele>602.38</ele>
        <time>2014-01-18T10:25:51Z</time>
      </trkpt>
      <trkpt lat="45.94649" lon="4.60895">
        <ele>599.99</ele>
        <time>2014-01-18T10:25:59Z</time>
      </trkpt>
      <trkpt lat="45.94638" lon="4.60906">
        <ele>598.14</ele>
        <time>2014-01-18T10:26:04Z</time>
      </trkpt>
      <trkpt lat="45.94624" lon="4.60919">
        <ele>596.76</ele>
        <time>2014-01-18T10:26:10Z</time>
      </trkpt>
      <trkpt lat="45.94618" lon="4.60928">
        <ele>594.86</ele>
        <time>2014-01-18T10:26:13Z</time>
      </trkpt>
      <trkpt lat="45.94615" lon="4.60929">
        <ele>594.74</ele>
        <time>2014-01-18T10:26:14Z</time>
      </trkpt>
      <trkpt lat="45.94608" lon="4.6093">
        <ele>593.62</ele>
        <time>2014-01-18T10:26:17Z</time>
      </trkpt>
      <trkpt lat="45.94592" lon="4.60941">
        <ele>590.81</ele>
        <time>2014-01-18T10:26:24Z</time>
      </trkpt>
      <trkpt lat="45.94587" lon="4.60954">
        <ele>588.31</ele>
        <time>2014-01-18T10:26:28Z</time>
      </trkpt>
      <trkpt lat="45.9458" lon="4.60974">
        <ele>585.59</ele>
        <time>2014-01-18T10:26:34Z</time>
      </trkpt>
      <trkpt lat="45.94574" lon="4.60995">
        <ele>586.42</ele>
        <time>2014-01-18T10:26:40Z</time>
      </trkpt>
      <trkpt lat="45.94564" lon="4.61014">
        <ele>585.44</ele>
        <time>2014-01-18T10:26:46Z</time>
      </trkpt>
      <trkpt lat="45.94553" lon="4.61038">
        <ele>584.09</ele>
        <time>2014-01-18T10:26:53Z</time>
      </trkpt>
      <trkpt lat="45.94553" lon="4.61063">
        <ele>585.17</ele>
        <time>2014-01-18T10:27:00Z</time>
      </trkpt>
      <trkpt lat="45.94553" lon="4.61066">
        <ele>585.42</ele>
        <time>2014-01-18T10:27:01Z</time>
      </trkpt>
      <trkpt lat="45.94544" lon="4.6108">
        <ele>585.72</ele>
        <time>2014-01-18T10:27:06Z</time>
      </trkpt>
      <trkpt lat="45.9454" lon="4.61085">
        <ele>585</ele>
        <time>2014-01-18T10:27:08Z</time>
      </trkpt>
      <trkpt lat="45.94535" lon="4.6109">
        <ele>584.2</ele>
        <time>2014-01-18T10:27:10Z</time>
      </trkpt>
      <trkpt lat="45.94518" lon="4.61114">
        <ele>583.05</ele>
        <time>2014-01-18T10:27:18Z</time>
      </trkpt>
      <trkpt lat="45.94501" lon="4.61139">
        <ele>581.12</ele>
        <time>2014-01-18T10:27:26Z</time>
      </trkpt>
      <trkpt lat="45.9449" lon="4.61156">
        <ele>581.63</ele>
        <time>2014-01-18T10:27:32Z</time>
      </trkpt>
      <trkpt lat="45.94472" lon="4.61171">
        <ele>579.46</ele>
        <time>2014-01-18T10:27:39Z</time>
      </trkpt>
      <trkpt lat="45.9446" lon="4.61189">
        <ele>577.03</ele>
        <time>2014-01-18T10:27:45Z</time>
      </trkpt>
      <trkpt lat="45.94451" lon="4.61206">
        <ele>575.58</ele>
        <time>2014-01-18T10:27:50Z</time>
      </trkpt>
      <trkpt lat="45.94447" lon="4.61212">
        <ele>574.92</ele>
        <time>2014-01-18T10:27:52Z</time>
      </trkpt>
      <trkpt lat="45.94432" lon="4.61225">
        <ele>573.07</ele>
        <time>2014-01-18T10:27:58Z</time>
      </trkpt>
      <trkpt lat="45.94419" lon="4.61237">
        <ele>571.38</ele>
        <time>2014-01-18T10:28:03Z</time>
      </trkpt>
      <trkpt lat="45.94402" lon="4.61258">
        <ele>569.28</ele>
        <time>2014-01-18T10:28:09Z</time>
      </trkpt>
      <trkpt lat="45.9439" lon="4.61277">
        <ele>566.13</ele>
        <time>2014-01-18T10:28:14Z</time>
      </trkpt>
      <trkpt lat="45.94374" lon="4.61299">
        <ele>564.5</ele>
        <time>2014-01-18T10:28:20Z</time>
      </trkpt>
      <trkpt lat="45.94359" lon="4.61314">
        <ele>561.29</ele>
        <time>2014-01-18T10:28:25Z</time>
      </trkpt>
      <trkpt lat="45.94352" lon="4.61322">
        <ele>559.88</ele>
        <time>2014-01-18T10:28:28Z</time>
      </trkpt>
      <trkpt lat="45.94339" lon="4.6134">
        <ele>556.79</ele>
        <time>2014-01-18T10:28:34Z</time>
      </trkpt>
      <trkpt lat="45.94325" lon="4.61355">
        <ele>553.66</ele>
        <time>2014-01-18T10:28:40Z</time>
      </trkpt>
      <trkpt lat="45.94313" lon="4.61377">
        <ele>550.18</ele>
        <time>2014-01-18T10:28:46Z</time>
      </trkpt>
      <trkpt lat="45.943" lon="4.61398">
        <ele>547.11</ele>
        <time>2014-01-18T10:28:53Z</time>
      </trkpt>
      <trkpt lat="45.94287" lon="4.61414">
        <ele>544.53</ele>
        <time>2014-01-18T10:28:59Z</time>
      </trkpt>
      <trkpt lat="45.94279" lon="4.61425">
        <ele>542.35</ele>
        <time>2014-01-18T10:29:04Z</time>
      </trkpt>
      <trkpt lat="45.94272" lon="4.61437">
        <ele>540.62</ele>
        <time>2014-01-18T10:29:08Z</time>
      </trkpt>
      <trkpt lat="45.94266" lon="4.61448">
        <ele>538.6</ele>
        <time>2014-01-18T10:29:11Z</time>
      </trkpt>
      <trkpt lat="45.9426" lon="4.61464">
        <ele>535.68</ele>
        <time>2014-01-18T10:29:15Z</time>
      </trkpt>
      <trkpt lat="45.94251" lon="4.61481">
        <ele>532.45</ele>
        <time>2014-01-18T10:29:20Z</time>
      </trkpt>
      <trkpt lat="45.94239" lon="4.61493">
        <ele>528.83</ele>
        <time>2014-01-18T10:29:25Z</time>
      </trkpt>
      <trkpt lat="45.94232" lon="4.61493">
        <ele>527.72</ele>
        <time>2014-01-18T10:29:27Z</time>
      </trkpt>
      <trkpt lat="45.94222" lon="4.6149">
        <ele>525.85</ele>
        <time>2014-01-18T10:29:30Z</time>
      </trkpt>
      <trkpt lat="45.94215" lon="4.61504">
        <ele>523.55</ele>
        <time>2014-01-18T10:29:34Z</time>
      </trkpt>
      <trkpt lat="45.94212" lon="4.61526">
        <ele>520.02</ele>
        <time>2014-01-18T10:29:39Z</time>
      </trkpt>
      <trkpt lat="45.9421" lon="4.61542">
        <ele>516.72</ele>
        <time>2014-01-18T10:29:43Z</time>
      </trkpt>
      <trkpt lat="45.94203" lon="4.61562">
        <ele>513.37</ele>
        <time>2014-01-18T10:29:48Z</time>
      </trkpt>
      <trkpt lat="45.94203" lon="4.61575">
        <ele>510.07</ele>
        <time>2014-01-18T10:29:51Z</time>
      </trkpt>
      <trkpt lat="45.94199" lon="4.61594">
        <ele>506.26</ele>
        <time>2014-01-18T10:29:56Z</time>
      </trkpt>
      <trkpt lat="45.94189" lon="4.61604">
        <ele>501.79</ele>
        <time>2014-01-18T10:30:01Z</time>
      </trkpt>
      <trkpt lat="45.94186" lon="4.61607">
        <ele>501.6</ele>
        <time>2014-01-18T10:30:02Z</time>
      </trkpt>
      <trkpt lat="45.94175" lon="4.61615">
        <ele>498.28</ele>
        <time>2014-01-18T10:30:06Z</time>
      </trkpt>
      <trkpt lat="45.94164" lon="4.61619">
        <ele>495.04</ele>
        <time>2014-01-18T10:30:10Z</time>
      </trkpt>
      <trkpt lat="45.94155" lon="4.61627">
        <ele>491.25</ele>
        <time>2014-01-18T10:30:14Z</time>
      </trkpt>
      <trkpt lat="45.9414" lon="4.61623">
        <ele>487.96</ele>
        <time>2014-01-18T10:30:19Z</time>
      </trkpt>
      <trkpt lat="45.94132" lon="4.61623">
        <ele>484.33</ele>
        <time>2014-01-18T10:30:22Z</time>
      </trkpt>
      <trkpt lat="45.94127" lon="4.61625">
        <ele>480.85</ele>
        <time>2014-01-18T10:30:25Z</time>
      </trkpt>
      <trkpt lat="45.94127" lon="4.61624">
        <ele>480.69</ele>
        <time>2014-01-18T10:30:26Z</time>
      </trkpt>
      <trkpt lat="45.94128" lon="4.61624">
        <ele>480.96</ele>
        <time>2014-01-18T10:30:34Z</time>
      </trkpt>
      <trkpt lat="45.94129" lon="4.61622">
        <ele>479.74</ele>
        <time>2014-01-18T10:30:49Z</time>
      </trkpt>
      <trkpt lat="45.94129" lon="4.61623">
        <ele>479.19</ele>
        <time>2014-01-18T10:31:01Z</time>
      </trkpt>
      <trkpt lat="45.9413" lon="4.61622">
        <ele>480.95</ele>
        <time>2014-01-18T10:31:17Z</time>
      </trkpt>
      <trkpt lat="45.94132" lon="4.61624">
        <ele>481.45</ele>
        <time>2014-01-18T10:31:32Z</time>
      </trkpt>
      <trkpt lat="45.94132" lon="4.61622">
        <ele>481.79</ele>
        <time>2014-01-18T10:31:48Z</time>
      </trkpt>
      <trkpt lat="45.94132" lon="4.61622">
        <ele>481.83</ele>
        <time>2014-01-18T10:32:05Z</time>
      </trkpt>
      <trkpt lat="45.94131" lon="4.61622">
        <ele>481.6</ele>
        <time>2014-01-18T10:32:18Z</time>
      </trkpt>
      <trkpt lat="45.94131" lon="4.61622">
        <ele>481.51</ele>
        <time>2014-01-18T10:32:34Z</time>
      </trkpt>
      <trkpt lat="45.94131" lon="4.61624">
        <ele>481.6</ele>
        <time>2014-01-18T10:32:47Z</time>
      </trkpt>
      <trkpt lat="45.94131" lon="4.61624">
        <ele>481.45</ele>
        <time>2014-01-18T10:32:48Z</time>
      </trkpt>
      <trkpt lat="45.94117" lon="4.61625">
        <ele>479.59</ele>
        <time>2014-01-18T10:32:53Z</time>
      </trkpt>
      <trkpt lat="45.94105" lon="4.61623">
        <ele>478.12</ele>
        <time>2014-01-18T10:33:00Z</time>
      </trkpt>
      <trkpt lat="45.94088" lon="4.61632">
        <ele>475.97</ele>
        <time>2014-01-18T10:33:07Z</time>
      </trkpt>
      <trkpt lat="45.94076" lon="4.61647">
        <ele>473.57</ele>
        <time>2014-01-18T10:33:13Z</time>
      </trkpt>
      <trkpt lat="45.94059" lon="4.6165">
        <ele>472.2</ele>
        <time>2014-01-18T10:33:19Z</time>
      </trkpt>
      <trkpt lat="45.94054" lon="4.61649">
        <ele>471.85</ele>
        <time>2014-01-18T10:33:21Z</time>
      </trkpt>
      <trkpt lat="45.94035" lon="4.61653">
        <ele>469.34</ele>
        <time>2014-01-18T10:33:28Z</time>
      </trkpt>
      <trkpt lat="45.94028" lon="4.61655">
        <ele>468.65</ele>
        <time>2014-01-18T10:33:30Z</time>
      </trkpt>
      <trkpt lat="45.9402" lon="4.61674">
        <ele>468.8</ele>
        <time>2014-01-18T10:33:35Z</time>
      </trkpt>
      <trkpt lat="45.94019" lon="4.61703">
        <ele>468.78</ele>
        <time>2014-01-18T10:33:42Z</time>
      </trkpt>
      <trkpt lat="45.94018" lon="4.61709">
        <ele>468.62</ele>
        <time>2014-01-18T10:33:44Z</time>
      </trkpt>
      <trkpt lat="45.9401" lon="4.61706">
        <ele>466.64</ele>
        <time>2014-01-18T10:33:49Z</time>
      </trkpt>
      <trkpt lat="45.94002" lon="4.61687">
        <ele>465.43</ele>
        <time>2014-01-18T10:33:55Z</time>
      </trkpt>
      <trkpt lat="45.94002" lon="4.61684">
        <ele>465</ele>
        <time>2014-01-18T10:33:56Z</time>
      </trkpt>
      <trkpt lat="45.93996" lon="4.61667">
        <ele>463.46</ele>
        <time>2014-01-18T10:34:03Z</time>
      </trkpt>
      <trkpt lat="45.93992" lon="4.61662">
        <ele>464.05</ele>
        <time>2014-01-18T10:34:11Z</time>
      </trkpt>
      <trkpt lat="45.93989" lon="4.61659">
        <ele>463.76</ele>
        <time>2014-01-18T10:34:17Z</time>
      </trkpt>
      <trkpt lat="45.93983" lon="4.61654">
        <ele>462.93</ele>
        <time>2014-01-18T10:34:28Z</time>
      </trkpt>
      <trkpt lat="45.93979" lon="4.61641">
        <ele>461.49</ele>
        <time>2014-01-18T10:34:40Z</time>
      </trkpt>
      <trkpt lat="45.9397" lon="4.61638">
        <ele>459.82</ele>
        <time>2014-01-18T10:34:47Z</time>
      </trkpt>
      <trkpt lat="45.93959" lon="4.6163">
        <ele>459.94</ele>
        <time>2014-01-18T10:34:57Z</time>
      </trkpt>
      <trkpt lat="45.9396" lon="4.61622">
        <ele>459.41</ele>
        <time>2014-01-18T10:35:07Z</time>
      </trkpt>
      <trkpt lat="45.93962" lon="4.6162">
        <ele>459.42</ele>
        <time>2014-01-18T10:35:17Z</time>
      </trkpt>
      <trkpt lat="45.93961" lon="4.6162">
        <ele>459.98</ele>
        <time>2014-01-18T10:35:30Z</time>
      </trkpt>
      <trkpt lat="45.93959" lon="4.61622">
        <ele>459.83</ele>
        <time>2014-01-18T10:35:42Z</time>
      </trkpt>
      <trkpt lat="45.93955" lon="4.6162">
        <ele>458.86</ele>
        <time>2014-01-18T10:35:52Z</time>
      </trkpt>
      <trkpt lat="45.93942" lon="4.61609">
        <ele>456.25</ele>
        <time>2014-01-18T10:35:58Z</time>
      </trkpt>
      <trkpt lat="45.9394" lon="4.61606">
        <ele>456.02</ele>
        <time>2014-01-18T10:35:59Z</time>
      </trkpt>
      <trkpt lat="45.93932" lon="4.61597">
        <ele>454.5</ele>
        <time>2014-01-18T10:36:03Z</time>
      </trkpt>
      <trkpt lat="45.93929" lon="4.61593">
        <ele>453.76</ele>
        <time>2014-01-18T10:36:08Z</time>
      </trkpt>
      <trkpt lat="45.93928" lon="4.6159">
        <ele>453.05</ele>
        <time>2014-01-18T10:36:20Z</time>
      </trkpt>
      <trkpt lat="45.93929" lon="4.61588">
        <ele>452.81</ele>
        <time>2014-01-18T10:36:31Z</time>
      </trkpt>
      <trkpt lat="45.93928" lon="4.61586">
        <ele>452.73</ele>
        <time>2014-01-18T10:36:42Z</time>
      </trkpt>
      <trkpt lat="45.93928" lon="4.61588">
        <ele>453.36</ele>
        <time>2014-01-18T10:36:56Z</time>
      </trkpt>
      <trkpt lat="45.93928" lon="4.61589">
        <ele>452.73</ele>
        <time>2014-01-18T10:37:10Z</time>
      </trkpt>
      <trkpt lat="45.93929" lon="4.6159">
        <ele>452.32</ele>
        <time>2014-01-18T10:37:27Z</time>
      </trkpt>
      <trkpt lat="45.93921" lon="4.61584">
        <ele>452.6</ele>
        <time>2014-01-18T10:37:34Z</time>
      </trkpt>
      <trkpt lat="45.93909" lon="4.61591">
        <ele>451.43</ele>
        <time>2014-01-18T10:37:42Z</time>
      </trkpt>
      <trkpt lat="45.93912" lon="4.61589">
        <ele>451.68</ele>
        <time>2014-01-18T10:37:50Z</time>
      </trkpt>
      <trkpt lat="45.93912" lon="4.61589">
        <ele>451.61</ele>
        <time>2014-01-18T10:38:00Z</time>
      </trkpt>
      <trkpt lat="45.939" lon="4.61597">
        <ele>451.06</ele>
        <time>2014-01-18T10:38:07Z</time>
      </trkpt>
      <trkpt lat="45.93886" lon="4.61606">
        <ele>447.76</ele>
        <time>2014-01-18T10:38:13Z</time>
      </trkpt>
      <trkpt lat="45.93879" lon="4.61611">
        <ele>445.93</ele>
        <time>2014-01-18T10:38:16Z</time>
      </trkpt>
      <trkpt lat="45.93863" lon="4.61624">
        <ele>444.32</ele>
        <time>2014-01-18T10:38:24Z</time>
      </trkpt>
      <trkpt lat="45.93855" lon="4.61639">
        <ele>442.41</ele>
        <time>2014-01-18T10:38:29Z</time>
      </trkpt>
      <trkpt lat="45.93854" lon="4.61654">
        <ele>443.27</ele>
        <time>2014-01-18T10:38:35Z</time>
      </trkpt>
      <trkpt lat="45.93854" lon="4.61657">
        <ele>442.29</ele>
        <time>2014-01-18T10:38:42Z</time>
      </trkpt>
      <trkpt lat="45.93854" lon="4.61671">
        <ele>442.6</ele>
        <time>2014-01-18T10:38:46Z</time>
      </trkpt>
      <trkpt lat="45.93858" lon="4.61707">
        <ele>441.82</ele>
        <time>2014-01-18T10:38:55Z</time>
      </trkpt>
      <trkpt lat="45.93864" lon="4.61732">
        <ele>442.51</ele>
        <time>2014-01-18T10:39:02Z</time>
      </trkpt>
      <trkpt lat="45.93871" lon="4.61762">
        <ele>444.24</ele>
        <time>2014-01-18T10:39:11Z</time>
      </trkpt>
      <trkpt lat="45.93874" lon="4.61779">
        <ele>443.22</ele>
        <time>2014-01-18T10:39:17Z</time>
      </trkpt>
      <trkpt lat="45.93875" lon="4.61782">
        <ele>442.67</ele>
        <time>2014-01-18T10:39:18Z</time>
      </trkpt>
      <trkpt lat="45.93864" lon="4.61793">
        <ele>440.71</ele>
        <time>2014-01-18T10:39:23Z</time>
      </trkpt>
      <trkpt lat="45.93851" lon="4.618">
        <ele>438.25</ele>
        <time>2014-01-18T10:39:29Z</time>
      </trkpt>
      <trkpt lat="45.93842" lon="4.61806">
        <ele>436.29</ele>
        <time>2014-01-18T10:39:34Z</time>
      </trkpt>
      <trkpt lat="45.93825" lon="4.61811">
        <ele>433.41</ele>
        <time>2014-01-18T10:39:41Z</time>
      </trkpt>
      <trkpt lat="45.93806" lon="4.61819">
        <ele>430.64</ele>
        <time>2014-01-18T10:39:48Z</time>
      </trkpt>
      <trkpt lat="45.93797" lon="4.61821">
        <ele>429.07</ele>
        <time>2014-01-18T10:39:51Z</time>
      </trkpt>
      <trkpt lat="45.93776" lon="4.61821">
        <ele>426.94</ele>
        <time>2014-01-18T10:39:58Z</time>
      </trkpt>
      <trkpt lat="45.93758" lon="4.61819">
        <ele>425.4</ele>
        <time>2014-01-18T10:40:04Z</time>
      </trkpt>
      <trkpt lat="45.93747" lon="4.6182">
        <ele>423.75</ele>
        <time>2014-01-18T10:40:08Z</time>
      </trkpt>
      <trkpt lat="45.93729" lon="4.61824">
        <ele>421.93</ele>
        <time>2014-01-18T10:40:15Z</time>
      </trkpt>
      <trkpt lat="45.93712" lon="4.61827">
        <ele>420.72</ele>
        <time>2014-01-18T10:40:22Z</time>
      </trkpt>
      <trkpt lat="45.93705" lon="4.61828">
        <ele>419.27</ele>
        <time>2014-01-18T10:40:25Z</time>
      </trkpt>
      <trkpt lat="45.93686" lon="4.61829">
        <ele>417.14</ele>
        <time>2014-01-18T10:40:31Z</time>
      </trkpt>
      <trkpt lat="45.93668" lon="4.61832">
        <ele>415.64</ele>
        <time>2014-01-18T10:40:38Z</time>
      </trkpt>
      <trkpt lat="45.93654" lon="4.61841">
        <ele>414.63</ele>
        <time>2014-01-18T10:40:44Z</time>
      </trkpt>
      <trkpt lat="45.93634" lon="4.61844">
        <ele>412.81</ele>
        <time>2014-01-18T10:40:51Z</time>
      </trkpt>
      <trkpt lat="45.93612" lon="4.61842">
        <ele>410.69</ele>
        <time>2014-01-18T10:40:59Z</time>
      </trkpt>
      <trkpt lat="45.93607" lon="4.61842">
        <ele>409.51</ele>
        <time>2014-01-18T10:41:01Z</time>
      </trkpt>
      <trkpt lat="45.93591" lon="4.6185">
        <ele>408.4</ele>
        <time>2014-01-18T10:41:07Z</time>
      </trkpt>
      <trkpt lat="45.93579" lon="4.61859">
        <ele>406.8</ele>
        <time>2014-01-18T10:41:12Z</time>
      </trkpt>
      <trkpt lat="45.93571" lon="4.61863">
        <ele>405.54</ele>
        <time>2014-01-18T10:41:15Z</time>
      </trkpt>
      <trkpt lat="45.93554" lon="4.61872">
        <ele>402.24</ele>
        <time>2014-01-18T10:41:21Z</time>
      </trkpt>
      <trkpt lat="45.93543" lon="4.61876">
        <ele>399.34</ele>
        <time>2014-01-18T10:41:25Z</time>
      </trkpt>
      <trkpt lat="45.9353" lon="4.61877">
        <ele>395.85</ele>
        <time>2014-01-18T10:41:30Z</time>
      </trkpt>
      <trkpt lat="45.93517" lon="4.61866">
        <ele>392.65</ele>
        <time>2014-01-18T10:41:36Z</time>
      </trkpt>
      <trkpt lat="45.93512" lon="4.61858">
        <ele>390.9</ele>
        <time>2014-01-18T10:41:39Z</time>
      </trkpt>
      <trkpt lat="45.93503" lon="4.61847">
        <ele>388.23</ele>
        <time>2014-01-18T10:41:43Z</time>
      </trkpt>
      <trkpt lat="45.93488" lon="4.61835">
        <ele>387.27</ele>
        <time>2014-01-18T10:41:49Z</time>
      </trkpt>
      <trkpt lat="45.93485" lon="4.61825">
        <ele>383.77</ele>
        <time>2014-01-18T10:41:52Z</time>
      </trkpt>
      <trkpt lat="45.93484" lon="4.61822">
        <ele>383.69</ele>
        <time>2014-01-18T10:41:53Z</time>
      </trkpt>
      <trkpt lat="45.93475" lon="4.61795">
        <ele>385.33</ele>
        <time>2014-01-18T10:42:01Z</time>
      </trkpt>
      <trkpt lat="45.93465" lon="4.61768">
        <ele>384.73</ele>
        <time>2014-01-18T10:42:09Z</time>
      </trkpt>
      <trkpt lat="45.93459" lon="4.61748">
        <ele>383.98</ele>
        <time>2014-01-18T10:42:15Z</time>
      </trkpt>
      <trkpt lat="45.93451" lon="4.61719">
        <ele>383.11</ele>
        <time>2014-01-18T10:42:24Z</time>
      </trkpt>
      <trkpt lat="45.93446" lon="4.61697">
        <ele>383.36</ele>
        <time>2014-01-18T10:42:30Z</time>
      </trkpt>
      <trkpt lat="45.93444" lon="4.61677">
        <ele>382.77</ele>
        <time>2014-01-18T10:42:36Z</time>
      </trkpt>
      <trkpt lat="45.93444" lon="4.61665">
        <ele>382.37</ele>
        <time>2014-01-18T10:42:39Z</time>
      </trkpt>
      <trkpt lat="45.93445" lon="4.61653">
        <ele>382.43</ele>
        <time>2014-01-18T10:42:42Z</time>
      </trkpt>
      <trkpt lat="45.93449" lon="4.61636">
        <ele>382.63</ele>
        <time>2014-01-18T10:42:47Z</time>
      </trkpt>
      <trkpt lat="45.93455" lon="4.61614">
        <ele>383.23</ele>
        <time>2014-01-18T10:42:54Z</time>
      </trkpt>
      <trkpt lat="45.93462" lon="4.61601">
        <ele>385.16</ele>
        <time>2014-01-18T10:42:59Z</time>
      </trkpt>
      <trkpt lat="45.93464" lon="4.61599">
        <ele>385.45</ele>
        <time>2014-01-18T10:43:00Z</time>
      </trkpt>
      <trkpt lat="45.93474" lon="4.61581">
        <ele>385.98</ele>
        <time>2014-01-18T10:43:08Z</time>
      </trkpt>
      <trkpt lat="45.93487" lon="4.61573">
        <ele>388.51</ele>
        <time>2014-01-18T10:43:14Z</time>
      </trkpt>
      <trkpt lat="45.93489" lon="4.61573">
        <ele>388.69</ele>
        <time>2014-01-18T10:43:15Z</time>
      </trkpt>
      <trkpt lat="45.93499" lon="4.61563">
        <ele>389.13</ele>
        <time>2014-01-18T10:43:21Z</time>
      </trkpt>
      <trkpt lat="45.93511" lon="4.61548">
        <ele>389.66</ele>
        <time>2014-01-18T10:43:28Z</time>
      </trkpt>
      <trkpt lat="45.93522" lon="4.61531">
        <ele>390.37</ele>
        <time>2014-01-18T10:43:35Z</time>
      </trkpt>
      <trkpt lat="45.93534" lon="4.61516">
        <ele>389.97</ele>
        <time>2014-01-18T10:43:42Z</time>
      </trkpt>
      <trkpt lat="45.93544" lon="4.61505">
        <ele>389.26</ele>
        <time>2014-01-18T10:43:47Z</time>
      </trkpt>
      <trkpt lat="45.93558" lon="4.61493">
        <ele>388.9</ele>
        <time>2014-01-18T10:43:54Z</time>
      </trkpt>
      <trkpt lat="45.93561" lon="4.61509">
        <ele>391.42</ele>
        <time>2014-01-18T10:44:00Z</time>
      </trkpt>
      <trkpt lat="45.93561" lon="4.61518">
        <ele>392.54</ele>
        <time>2014-01-18T10:44:03Z</time>
      </trkpt>
      <trkpt lat="45.9356" lon="4.61524">
        <ele>393.33</ele>
        <time>2014-01-18T10:44:05Z</time>
      </trkpt>
      <trkpt lat="45.93559" lon="4.61547">
        <ele>395.96</ele>
        <time>2014-01-18T10:44:13Z</time>
      </trkpt>
      <trkpt lat="45.93557" lon="4.61567">
        <ele>398.38</ele>
        <time>2014-01-18T10:44:21Z</time>
      </trkpt>
      <trkpt lat="45.93555" lon="4.61584">
        <ele>400.73</ele>
        <time>2014-01-18T10:44:28Z</time>
      </trkpt>
      <trkpt lat="45.93555" lon="4.61588">
        <ele>401.63</ele>
        <time>2014-01-18T10:44:36Z</time>
      </trkpt>
      <trkpt lat="45.93563" lon="4.61607">
        <ele>403.94</ele>
        <time>2014-01-18T10:44:44Z</time>
      </trkpt>
      <trkpt lat="45.93564" lon="4.61609">
        <ele>404.2</ele>
        <time>2014-01-18T10:44:45Z</time>
      </trkpt>
      <trkpt lat="45.93569" lon="4.6162">
        <ele>405.1</ele>
        <time>2014-01-18T10:44:50Z</time>
      </trkpt>
      <trkpt lat="45.93583" lon="4.61622">
        <ele>407.99</ele>
        <time>2014-01-18T10:44:58Z</time>
      </trkpt>
      <trkpt lat="45.93599" lon="4.61621">
        <ele>410.39</ele>
        <time>2014-01-18T10:45:06Z</time>
      </trkpt>
      <trkpt lat="45.9362" lon="4.61626">
        <ele>412.94</ele>
        <time>2014-01-18T10:45:15Z</time>
      </trkpt>
      <trkpt lat="45.93633" lon="4.61632">
        <ele>414.5</ele>
        <time>2014-01-18T10:45:21Z</time>
      </trkpt>
      <trkpt lat="45.93648" lon="4.6164">
        <ele>417.46</ele>
        <time>2014-01-18T10:45:29Z</time>
      </trkpt>
      <trkpt lat="45.93661" lon="4.6164">
        <ele>418.42</ele>
        <time>2014-01-18T10:45:35Z</time>
      </trkpt>
      <trkpt lat="45.93674" lon="4.61632">
        <ele>418.42</ele>
        <time>2014-01-18T10:45:42Z</time>
      </trkpt>
      <trkpt lat="45.93685" lon="4.61631">
        <ele>420.1</ele>
        <time>2014-01-18T10:45:49Z</time>
      </trkpt>
      <trkpt lat="45.93686" lon="4.61631">
        <ele>420.63</ele>
        <time>2014-01-18T10:45:50Z</time>
      </trkpt>
    </trkseg>
  </trk>
</gpx>